<?xml version="1.0" encoding="UTF-8" standalone="no" ?>
<gpx xmlns="http://www.topografix.com/GPX/1/1" xmlns:xsi="http://www.w3.org/2001/XMLSchema-instance" xsi:schemaLocation="http://www.topografix.com/GPX/1/1 http://www.topografix.com/GPX/1/1/gpx.xsd" version="1.1" creator="VisuGPX - https://www.visugpx.com">
  <metadata>
    <name>UTV 2014 ETAPE 1 </name>
    <desc><![CDATA[Ultra Trail du Vercors 2014 Etape 1 David]]></desc>
  </metadata>
  <trk>
    <name><![CDATA[section1 on GPSies.com]]></name>
    <trkseg>
      <trkpt lat="45.12735" lon="5.52743">
        <ele>992</ele>
        <time>2010-01-01T00:00:00Z</time>
      </trkpt>
      <trkpt lat="45.12733" lon="5.52743">
        <ele>992</ele>
        <time>2010-01-01T00:00:00Z</time>
      </trkpt>
      <trkpt lat="45.12742" lon="5.52746">
        <ele>991</ele>
        <time>2010-01-01T00:00:04Z</time>
      </trkpt>
      <trkpt lat="45.12752" lon="5.52748">
        <ele>991</ele>
        <time>2010-01-01T00:00:08Z</time>
      </trkpt>
      <trkpt lat="45.12746" lon="5.52734">
        <ele>991</ele>
        <time>2010-01-01T00:00:13Z</time>
      </trkpt>
      <trkpt lat="45.12735" lon="5.52728">
        <ele>992</ele>
        <time>2010-01-01T00:00:17Z</time>
      </trkpt>
      <trkpt lat="45.12725" lon="5.52725">
        <ele>992</ele>
        <time>2010-01-01T00:00:21Z</time>
      </trkpt>
      <trkpt lat="45.12714" lon="5.52725">
        <ele>993</ele>
        <time>2010-01-01T00:00:26Z</time>
      </trkpt>
      <trkpt lat="45.12703" lon="5.52727">
        <ele>993</ele>
        <time>2010-01-01T00:00:30Z</time>
      </trkpt>
      <trkpt lat="45.12694" lon="5.52734">
        <ele>993</ele>
        <time>2010-01-01T00:00:34Z</time>
      </trkpt>
      <trkpt lat="45.12685" lon="5.5274">
        <ele>993</ele>
        <time>2010-01-01T00:00:38Z</time>
      </trkpt>
      <trkpt lat="45.12678" lon="5.52748">
        <ele>993</ele>
        <time>2010-01-01T00:00:42Z</time>
      </trkpt>
      <trkpt lat="45.12669" lon="5.52757">
        <ele>993</ele>
        <time>2010-01-01T00:00:46Z</time>
      </trkpt>
      <trkpt lat="45.12661" lon="5.52765">
        <ele>993</ele>
        <time>2010-01-01T00:00:50Z</time>
      </trkpt>
      <trkpt lat="45.12652" lon="5.52773">
        <ele>992</ele>
        <time>2010-01-01T00:00:54Z</time>
      </trkpt>
      <trkpt lat="45.12644" lon="5.5278">
        <ele>992</ele>
        <time>2010-01-01T00:00:58Z</time>
      </trkpt>
      <trkpt lat="45.12634" lon="5.52788">
        <ele>992</ele>
        <time>2010-01-01T00:01:03Z</time>
      </trkpt>
      <trkpt lat="45.12625" lon="5.52795">
        <ele>992</ele>
        <time>2010-01-01T00:01:07Z</time>
      </trkpt>
      <trkpt lat="45.12616" lon="5.52802">
        <ele>991</ele>
        <time>2010-01-01T00:01:11Z</time>
      </trkpt>
      <trkpt lat="45.12607" lon="5.52808">
        <ele>991</ele>
        <time>2010-01-01T00:01:15Z</time>
      </trkpt>
      <trkpt lat="45.12601" lon="5.5282">
        <ele>990</ele>
        <time>2010-01-01T00:01:19Z</time>
      </trkpt>
      <trkpt lat="45.12594" lon="5.52833">
        <ele>989</ele>
        <time>2010-01-01T00:01:24Z</time>
      </trkpt>
      <trkpt lat="45.12587" lon="5.52845">
        <ele>988</ele>
        <time>2010-01-01T00:01:28Z</time>
      </trkpt>
      <trkpt lat="45.12581" lon="5.52856">
        <ele>988</ele>
        <time>2010-01-01T00:01:32Z</time>
      </trkpt>
      <trkpt lat="45.12576" lon="5.52867">
        <ele>987</ele>
        <time>2010-01-01T00:01:36Z</time>
      </trkpt>
      <trkpt lat="45.12571" lon="5.52878">
        <ele>987</ele>
        <time>2010-01-01T00:01:40Z</time>
      </trkpt>
      <trkpt lat="45.12565" lon="5.52888">
        <ele>986</ele>
        <time>2010-01-01T00:01:43Z</time>
      </trkpt>
      <trkpt lat="45.12558" lon="5.52898">
        <ele>985</ele>
        <time>2010-01-01T00:01:47Z</time>
      </trkpt>
      <trkpt lat="45.12551" lon="5.52908">
        <ele>984</ele>
        <time>2010-01-01T00:01:51Z</time>
      </trkpt>
      <trkpt lat="45.12544" lon="5.52917">
        <ele>983</ele>
        <time>2010-01-01T00:01:55Z</time>
      </trkpt>
      <trkpt lat="45.12537" lon="5.52926">
        <ele>983</ele>
        <time>2010-01-01T00:01:59Z</time>
      </trkpt>
      <trkpt lat="45.12529" lon="5.52935">
        <ele>982</ele>
        <time>2010-01-01T00:02:03Z</time>
      </trkpt>
      <trkpt lat="45.12521" lon="5.52945">
        <ele>981</ele>
        <time>2010-01-01T00:02:07Z</time>
      </trkpt>
      <trkpt lat="45.12513" lon="5.52955">
        <ele>980</ele>
        <time>2010-01-01T00:02:11Z</time>
      </trkpt>
      <trkpt lat="45.12505" lon="5.52962">
        <ele>980</ele>
        <time>2010-01-01T00:02:15Z</time>
      </trkpt>
      <trkpt lat="45.12497" lon="5.52971">
        <ele>979</ele>
        <time>2010-01-01T00:02:19Z</time>
      </trkpt>
      <trkpt lat="45.12488" lon="5.52979">
        <ele>979</ele>
        <time>2010-01-01T00:02:23Z</time>
      </trkpt>
      <trkpt lat="45.12478" lon="5.52984">
        <ele>979</ele>
        <time>2010-01-01T00:02:28Z</time>
      </trkpt>
      <trkpt lat="45.12469" lon="5.52983">
        <ele>980</ele>
        <time>2010-01-01T00:02:31Z</time>
      </trkpt>
      <trkpt lat="45.12458" lon="5.52984">
        <ele>980</ele>
        <time>2010-01-01T00:02:36Z</time>
      </trkpt>
      <trkpt lat="45.12447" lon="5.52985">
        <ele>980</ele>
        <time>2010-01-01T00:02:40Z</time>
      </trkpt>
      <trkpt lat="45.12436" lon="5.52985">
        <ele>981</ele>
        <time>2010-01-01T00:02:45Z</time>
      </trkpt>
      <trkpt lat="45.12413" lon="5.52983">
        <ele>982</ele>
        <time>2010-01-01T00:02:54Z</time>
      </trkpt>
      <trkpt lat="45.12401" lon="5.52983">
        <ele>982</ele>
        <time>2010-01-01T00:02:58Z</time>
      </trkpt>
      <trkpt lat="45.12392" lon="5.52982">
        <ele>982</ele>
        <time>2010-01-01T00:03:02Z</time>
      </trkpt>
      <trkpt lat="45.12383" lon="5.52982">
        <ele>982</ele>
        <time>2010-01-01T00:03:06Z</time>
      </trkpt>
      <trkpt lat="45.12371" lon="5.52983">
        <ele>982</ele>
        <time>2010-01-01T00:03:11Z</time>
      </trkpt>
      <trkpt lat="45.12362" lon="5.52984">
        <ele>982</ele>
        <time>2010-01-01T00:03:14Z</time>
      </trkpt>
      <trkpt lat="45.12351" lon="5.52985">
        <ele>982</ele>
        <time>2010-01-01T00:03:19Z</time>
      </trkpt>
      <trkpt lat="45.12339" lon="5.52987">
        <ele>981</ele>
        <time>2010-01-01T00:03:23Z</time>
      </trkpt>
      <trkpt lat="45.12329" lon="5.52988">
        <ele>981</ele>
        <time>2010-01-01T00:03:27Z</time>
      </trkpt>
      <trkpt lat="45.1232" lon="5.52991">
        <ele>981</ele>
        <time>2010-01-01T00:03:31Z</time>
      </trkpt>
      <trkpt lat="45.12311" lon="5.52994">
        <ele>980</ele>
        <time>2010-01-01T00:03:35Z</time>
      </trkpt>
      <trkpt lat="45.12301" lon="5.52999">
        <ele>980</ele>
        <time>2010-01-01T00:03:39Z</time>
      </trkpt>
      <trkpt lat="45.1229" lon="5.53002">
        <ele>979</ele>
        <time>2010-01-01T00:03:44Z</time>
      </trkpt>
      <trkpt lat="45.12282" lon="5.53008">
        <ele>979</ele>
        <time>2010-01-01T00:03:47Z</time>
      </trkpt>
      <trkpt lat="45.12274" lon="5.53014">
        <ele>978</ele>
        <time>2010-01-01T00:03:51Z</time>
      </trkpt>
      <trkpt lat="45.12256" lon="5.53024">
        <ele>977</ele>
        <time>2010-01-01T00:03:59Z</time>
      </trkpt>
      <trkpt lat="45.12245" lon="5.53027">
        <ele>977</ele>
        <time>2010-01-01T00:04:03Z</time>
      </trkpt>
      <trkpt lat="45.12235" lon="5.53029">
        <ele>976</ele>
        <time>2010-01-01T00:04:07Z</time>
      </trkpt>
      <trkpt lat="45.12223" lon="5.53031">
        <ele>976</ele>
        <time>2010-01-01T00:04:12Z</time>
      </trkpt>
      <trkpt lat="45.12213" lon="5.53032">
        <ele>976</ele>
        <time>2010-01-01T00:04:16Z</time>
      </trkpt>
      <trkpt lat="45.12204" lon="5.53031">
        <ele>976</ele>
        <time>2010-01-01T00:04:20Z</time>
      </trkpt>
      <trkpt lat="45.12194" lon="5.53031">
        <ele>976</ele>
        <time>2010-01-01T00:04:24Z</time>
      </trkpt>
      <trkpt lat="45.12185" lon="5.53031">
        <ele>976</ele>
        <time>2010-01-01T00:04:27Z</time>
      </trkpt>
      <trkpt lat="45.12175" lon="5.5303">
        <ele>976</ele>
        <time>2010-01-01T00:04:31Z</time>
      </trkpt>
      <trkpt lat="45.12163" lon="5.5303">
        <ele>976</ele>
        <time>2010-01-01T00:04:36Z</time>
      </trkpt>
      <trkpt lat="45.12153" lon="5.53029">
        <ele>976</ele>
        <time>2010-01-01T00:04:40Z</time>
      </trkpt>
      <trkpt lat="45.12143" lon="5.53028">
        <ele>975</ele>
        <time>2010-01-01T00:04:44Z</time>
      </trkpt>
      <trkpt lat="45.12131" lon="5.53027">
        <ele>975</ele>
        <time>2010-01-01T00:04:49Z</time>
      </trkpt>
      <trkpt lat="45.12121" lon="5.53028">
        <ele>974</ele>
        <time>2010-01-01T00:04:53Z</time>
      </trkpt>
      <trkpt lat="45.1211" lon="5.53028">
        <ele>974</ele>
        <time>2010-01-01T00:04:57Z</time>
      </trkpt>
      <trkpt lat="45.12099" lon="5.53028">
        <ele>973</ele>
        <time>2010-01-01T00:05:02Z</time>
      </trkpt>
      <trkpt lat="45.12078" lon="5.53026">
        <ele>973</ele>
        <time>2010-01-01T00:05:10Z</time>
      </trkpt>
      <trkpt lat="45.12069" lon="5.53026">
        <ele>973</ele>
        <time>2010-01-01T00:05:14Z</time>
      </trkpt>
      <trkpt lat="45.12057" lon="5.53028">
        <ele>973</ele>
        <time>2010-01-01T00:05:19Z</time>
      </trkpt>
      <trkpt lat="45.12046" lon="5.53031">
        <ele>973</ele>
        <time>2010-01-01T00:05:23Z</time>
      </trkpt>
      <trkpt lat="45.12035" lon="5.53032">
        <ele>973</ele>
        <time>2010-01-01T00:05:28Z</time>
      </trkpt>
      <trkpt lat="45.12023" lon="5.53033">
        <ele>973</ele>
        <time>2010-01-01T00:05:32Z</time>
      </trkpt>
      <trkpt lat="45.12012" lon="5.53034">
        <ele>973</ele>
        <time>2010-01-01T00:05:37Z</time>
      </trkpt>
      <trkpt lat="45.12002" lon="5.53036">
        <ele>973</ele>
        <time>2010-01-01T00:05:41Z</time>
      </trkpt>
      <trkpt lat="45.11991" lon="5.53037">
        <ele>974</ele>
        <time>2010-01-01T00:05:45Z</time>
      </trkpt>
      <trkpt lat="45.11981" lon="5.53037">
        <ele>975</ele>
        <time>2010-01-01T00:05:49Z</time>
      </trkpt>
      <trkpt lat="45.11969" lon="5.53036">
        <ele>976</ele>
        <time>2010-01-01T00:05:54Z</time>
      </trkpt>
      <trkpt lat="45.1196" lon="5.53035">
        <ele>977</ele>
        <time>2010-01-01T00:05:58Z</time>
      </trkpt>
      <trkpt lat="45.11949" lon="5.53032">
        <ele>978</ele>
        <time>2010-01-01T00:06:02Z</time>
      </trkpt>
      <trkpt lat="45.11938" lon="5.53035">
        <ele>979</ele>
        <time>2010-01-01T00:06:07Z</time>
      </trkpt>
      <trkpt lat="45.1193" lon="5.53042">
        <ele>978</ele>
        <time>2010-01-01T00:06:10Z</time>
      </trkpt>
      <trkpt lat="45.11918" lon="5.53068">
        <ele>973</ele>
        <time>2010-01-01T00:06:19Z</time>
      </trkpt>
      <trkpt lat="45.11913" lon="5.53081">
        <ele>971</ele>
        <time>2010-01-01T00:06:23Z</time>
      </trkpt>
      <trkpt lat="45.11905" lon="5.53091">
        <ele>970</ele>
        <time>2010-01-01T00:06:27Z</time>
      </trkpt>
      <trkpt lat="45.11895" lon="5.53095">
        <ele>970</ele>
        <time>2010-01-01T00:06:32Z</time>
      </trkpt>
      <trkpt lat="45.11884" lon="5.53099">
        <ele>970</ele>
        <time>2010-01-01T00:06:36Z</time>
      </trkpt>
      <trkpt lat="45.11875" lon="5.531">
        <ele>971</ele>
        <time>2010-01-01T00:06:40Z</time>
      </trkpt>
      <trkpt lat="45.11863" lon="5.53103">
        <ele>971</ele>
        <time>2010-01-01T00:06:45Z</time>
      </trkpt>
      <trkpt lat="45.11854" lon="5.53104">
        <ele>971</ele>
        <time>2010-01-01T00:06:48Z</time>
      </trkpt>
      <trkpt lat="45.11843" lon="5.53105">
        <ele>971</ele>
        <time>2010-01-01T00:06:53Z</time>
      </trkpt>
      <trkpt lat="45.11832" lon="5.53105">
        <ele>972</ele>
        <time>2010-01-01T00:06:57Z</time>
      </trkpt>
      <trkpt lat="45.11823" lon="5.53105">
        <ele>972</ele>
        <time>2010-01-01T00:07:01Z</time>
      </trkpt>
      <trkpt lat="45.11811" lon="5.53106">
        <ele>972</ele>
        <time>2010-01-01T00:07:06Z</time>
      </trkpt>
      <trkpt lat="45.11802" lon="5.53106">
        <ele>972</ele>
        <time>2010-01-01T00:07:09Z</time>
      </trkpt>
      <trkpt lat="45.11793" lon="5.53107">
        <ele>972</ele>
        <time>2010-01-01T00:07:13Z</time>
      </trkpt>
      <trkpt lat="45.11783" lon="5.53107">
        <ele>972</ele>
        <time>2010-01-01T00:07:17Z</time>
      </trkpt>
      <trkpt lat="45.11774" lon="5.53106">
        <ele>972</ele>
        <time>2010-01-01T00:07:21Z</time>
      </trkpt>
      <trkpt lat="45.11753" lon="5.53103">
        <ele>972</ele>
        <time>2010-01-01T00:07:29Z</time>
      </trkpt>
      <trkpt lat="45.11742" lon="5.53102">
        <ele>972</ele>
        <time>2010-01-01T00:07:33Z</time>
      </trkpt>
      <trkpt lat="45.11732" lon="5.53104">
        <ele>972</ele>
        <time>2010-01-01T00:07:37Z</time>
      </trkpt>
      <trkpt lat="45.11721" lon="5.53107">
        <ele>972</ele>
        <time>2010-01-01T00:07:42Z</time>
      </trkpt>
      <trkpt lat="45.11711" lon="5.53109">
        <ele>971</ele>
        <time>2010-01-01T00:07:46Z</time>
      </trkpt>
      <trkpt lat="45.11699" lon="5.53114">
        <ele>971</ele>
        <time>2010-01-01T00:07:51Z</time>
      </trkpt>
      <trkpt lat="45.1169" lon="5.5312">
        <ele>970</ele>
        <time>2010-01-01T00:07:55Z</time>
      </trkpt>
      <trkpt lat="45.11681" lon="5.53125">
        <ele>969</ele>
        <time>2010-01-01T00:07:59Z</time>
      </trkpt>
      <trkpt lat="45.11671" lon="5.53133">
        <ele>968</ele>
        <time>2010-01-01T00:08:03Z</time>
      </trkpt>
      <trkpt lat="45.11662" lon="5.53137">
        <ele>968</ele>
        <time>2010-01-01T00:08:07Z</time>
      </trkpt>
      <trkpt lat="45.11652" lon="5.53139">
        <ele>968</ele>
        <time>2010-01-01T00:08:11Z</time>
      </trkpt>
      <trkpt lat="45.11641" lon="5.53138">
        <ele>968</ele>
        <time>2010-01-01T00:08:15Z</time>
      </trkpt>
      <trkpt lat="45.11631" lon="5.53141">
        <ele>969</ele>
        <time>2010-01-01T00:08:19Z</time>
      </trkpt>
      <trkpt lat="45.11619" lon="5.53141">
        <ele>969</ele>
        <time>2010-01-01T00:08:24Z</time>
      </trkpt>
      <trkpt lat="45.1161" lon="5.5314">
        <ele>970</ele>
        <time>2010-01-01T00:08:28Z</time>
      </trkpt>
      <trkpt lat="45.11589" lon="5.5314">
        <ele>970</ele>
        <time>2010-01-01T00:08:36Z</time>
      </trkpt>
      <trkpt lat="45.11578" lon="5.53138">
        <ele>970</ele>
        <time>2010-01-01T00:08:41Z</time>
      </trkpt>
      <trkpt lat="45.11566" lon="5.53136">
        <ele>970</ele>
        <time>2010-01-01T00:08:46Z</time>
      </trkpt>
      <trkpt lat="45.11557" lon="5.53135">
        <ele>970</ele>
        <time>2010-01-01T00:08:49Z</time>
      </trkpt>
      <trkpt lat="45.11548" lon="5.53134">
        <ele>970</ele>
        <time>2010-01-01T00:08:53Z</time>
      </trkpt>
      <trkpt lat="45.11538" lon="5.53133">
        <ele>969</ele>
        <time>2010-01-01T00:08:57Z</time>
      </trkpt>
      <trkpt lat="45.11527" lon="5.53134">
        <ele>969</ele>
        <time>2010-01-01T00:09:01Z</time>
      </trkpt>
      <trkpt lat="45.11518" lon="5.53134">
        <ele>969</ele>
        <time>2010-01-01T00:09:05Z</time>
      </trkpt>
      <trkpt lat="45.11506" lon="5.53136">
        <ele>968</ele>
        <time>2010-01-01T00:09:10Z</time>
      </trkpt>
      <trkpt lat="45.11497" lon="5.53137">
        <ele>967</ele>
        <time>2010-01-01T00:09:13Z</time>
      </trkpt>
      <trkpt lat="45.11485" lon="5.53139">
        <ele>966</ele>
        <time>2010-01-01T00:09:18Z</time>
      </trkpt>
      <trkpt lat="45.11475" lon="5.53139">
        <ele>966</ele>
        <time>2010-01-01T00:09:22Z</time>
      </trkpt>
      <trkpt lat="45.11463" lon="5.53137">
        <ele>966</ele>
        <time>2010-01-01T00:09:27Z</time>
      </trkpt>
      <trkpt lat="45.11452" lon="5.53133">
        <ele>966</ele>
        <time>2010-01-01T00:09:31Z</time>
      </trkpt>
      <trkpt lat="45.11442" lon="5.5313">
        <ele>965</ele>
        <time>2010-01-01T00:09:36Z</time>
      </trkpt>
      <trkpt lat="45.11432" lon="5.53129">
        <ele>965</ele>
        <time>2010-01-01T00:09:40Z</time>
      </trkpt>
      <trkpt lat="45.1141" lon="5.53126">
        <ele>964</ele>
        <time>2010-01-01T00:09:48Z</time>
      </trkpt>
      <trkpt lat="45.11399" lon="5.53126">
        <ele>964</ele>
        <time>2010-01-01T00:09:53Z</time>
      </trkpt>
      <trkpt lat="45.11387" lon="5.53127">
        <ele>964</ele>
        <time>2010-01-01T00:09:58Z</time>
      </trkpt>
      <trkpt lat="45.11376" lon="5.53126">
        <ele>964</ele>
        <time>2010-01-01T00:10:02Z</time>
      </trkpt>
      <trkpt lat="45.11364" lon="5.53122">
        <ele>964</ele>
        <time>2010-01-01T00:10:07Z</time>
      </trkpt>
      <trkpt lat="45.11356" lon="5.53116">
        <ele>965</ele>
        <time>2010-01-01T00:10:11Z</time>
      </trkpt>
      <trkpt lat="45.11345" lon="5.53109">
        <ele>966</ele>
        <time>2010-01-01T00:10:15Z</time>
      </trkpt>
      <trkpt lat="45.11335" lon="5.53102">
        <ele>966</ele>
        <time>2010-01-01T00:10:20Z</time>
      </trkpt>
      <trkpt lat="45.11325" lon="5.53093">
        <ele>967</ele>
        <time>2010-01-01T00:10:25Z</time>
      </trkpt>
      <trkpt lat="45.11315" lon="5.53085">
        <ele>967</ele>
        <time>2010-01-01T00:10:29Z</time>
      </trkpt>
      <trkpt lat="45.11306" lon="5.53078">
        <ele>967</ele>
        <time>2010-01-01T00:10:33Z</time>
      </trkpt>
      <trkpt lat="45.11296" lon="5.53071">
        <ele>967</ele>
        <time>2010-01-01T00:10:38Z</time>
      </trkpt>
      <trkpt lat="45.11286" lon="5.53064">
        <ele>967</ele>
        <time>2010-01-01T00:10:42Z</time>
      </trkpt>
      <trkpt lat="45.11275" lon="5.5306">
        <ele>967</ele>
        <time>2010-01-01T00:10:47Z</time>
      </trkpt>
      <trkpt lat="45.11264" lon="5.53054">
        <ele>967</ele>
        <time>2010-01-01T00:10:51Z</time>
      </trkpt>
      <trkpt lat="45.11243" lon="5.53048">
        <ele>966</ele>
        <time>2010-01-01T00:11:00Z</time>
      </trkpt>
      <trkpt lat="45.11234" lon="5.53047">
        <ele>966</ele>
        <time>2010-01-01T00:11:04Z</time>
      </trkpt>
      <trkpt lat="45.11225" lon="5.53054">
        <ele>966</ele>
        <time>2010-01-01T00:11:08Z</time>
      </trkpt>
      <trkpt lat="45.11224" lon="5.5307">
        <ele>964</ele>
        <time>2010-01-01T00:11:12Z</time>
      </trkpt>
      <trkpt lat="45.11224" lon="5.53083">
        <ele>963</ele>
        <time>2010-01-01T00:11:16Z</time>
      </trkpt>
      <trkpt lat="45.11224" lon="5.53097">
        <ele>964</ele>
        <time>2010-01-01T00:11:20Z</time>
      </trkpt>
      <trkpt lat="45.11215" lon="5.53103">
        <ele>965</ele>
        <time>2010-01-01T00:11:24Z</time>
      </trkpt>
      <trkpt lat="45.11207" lon="5.53112">
        <ele>966</ele>
        <time>2010-01-01T00:11:28Z</time>
      </trkpt>
      <trkpt lat="45.11207" lon="5.53128">
        <ele>967</ele>
        <time>2010-01-01T00:11:32Z</time>
      </trkpt>
      <trkpt lat="45.11207" lon="5.53142">
        <ele>967</ele>
        <time>2010-01-01T00:11:36Z</time>
      </trkpt>
      <trkpt lat="45.11207" lon="5.53157">
        <ele>968</ele>
        <time>2010-01-01T00:11:41Z</time>
      </trkpt>
      <trkpt lat="45.11208" lon="5.53172">
        <ele>969</ele>
        <time>2010-01-01T00:11:45Z</time>
      </trkpt>
      <trkpt lat="45.1121" lon="5.53185">
        <ele>971</ele>
        <time>2010-01-01T00:11:49Z</time>
      </trkpt>
      <trkpt lat="45.11213" lon="5.532">
        <ele>972</ele>
        <time>2010-01-01T00:11:53Z</time>
      </trkpt>
      <trkpt lat="45.1122" lon="5.53227">
        <ele>973</ele>
        <time>2010-01-01T00:12:01Z</time>
      </trkpt>
      <trkpt lat="45.11224" lon="5.5324">
        <ele>973</ele>
        <time>2010-01-01T00:12:05Z</time>
      </trkpt>
      <trkpt lat="45.11228" lon="5.53252">
        <ele>973</ele>
        <time>2010-01-01T00:12:09Z</time>
      </trkpt>
      <trkpt lat="45.11223" lon="5.53262">
        <ele>975</ele>
        <time>2010-01-01T00:12:13Z</time>
      </trkpt>
      <trkpt lat="45.11212" lon="5.53262">
        <ele>979</ele>
        <time>2010-01-01T00:12:17Z</time>
      </trkpt>
      <trkpt lat="45.11204" lon="5.53256">
        <ele>982</ele>
        <time>2010-01-01T00:12:21Z</time>
      </trkpt>
      <trkpt lat="45.11194" lon="5.53252">
        <ele>985</ele>
        <time>2010-01-01T00:12:25Z</time>
      </trkpt>
      <trkpt lat="45.11184" lon="5.53251">
        <ele>988</ele>
        <time>2010-01-01T00:12:29Z</time>
      </trkpt>
      <trkpt lat="45.11174" lon="5.53245">
        <ele>990</ele>
        <time>2010-01-01T00:12:33Z</time>
      </trkpt>
      <trkpt lat="45.11158" lon="5.53229">
        <ele>991</ele>
        <time>2010-01-01T00:12:41Z</time>
      </trkpt>
      <trkpt lat="45.11152" lon="5.53219">
        <ele>990</ele>
        <time>2010-01-01T00:12:45Z</time>
      </trkpt>
      <trkpt lat="45.11146" lon="5.5321">
        <ele>988</ele>
        <time>2010-01-01T00:12:48Z</time>
      </trkpt>
      <trkpt lat="45.11141" lon="5.53197">
        <ele>986</ele>
        <time>2010-01-01T00:12:52Z</time>
      </trkpt>
      <trkpt lat="45.11134" lon="5.53187">
        <ele>985</ele>
        <time>2010-01-01T00:12:56Z</time>
      </trkpt>
      <trkpt lat="45.11126" lon="5.5318">
        <ele>985</ele>
        <time>2010-01-01T00:13:00Z</time>
      </trkpt>
      <trkpt lat="45.11118" lon="5.53175">
        <ele>985</ele>
        <time>2010-01-01T00:13:04Z</time>
      </trkpt>
      <trkpt lat="45.11108" lon="5.53171">
        <ele>985</ele>
        <time>2010-01-01T00:13:08Z</time>
      </trkpt>
      <trkpt lat="45.11099" lon="5.53168">
        <ele>986</ele>
        <time>2010-01-01T00:13:12Z</time>
      </trkpt>
      <trkpt lat="45.1109" lon="5.53164">
        <ele>987</ele>
        <time>2010-01-01T00:13:15Z</time>
      </trkpt>
      <trkpt lat="45.11081" lon="5.53159">
        <ele>987</ele>
        <time>2010-01-01T00:13:19Z</time>
      </trkpt>
      <trkpt lat="45.11063" lon="5.5315">
        <ele>989</ele>
        <time>2010-01-01T00:13:26Z</time>
      </trkpt>
      <trkpt lat="45.11054" lon="5.53145">
        <ele>990</ele>
        <time>2010-01-01T00:13:31Z</time>
      </trkpt>
      <trkpt lat="45.11044" lon="5.53141">
        <ele>992</ele>
        <time>2010-01-01T00:13:35Z</time>
      </trkpt>
      <trkpt lat="45.11033" lon="5.53139">
        <ele>993</ele>
        <time>2010-01-01T00:13:39Z</time>
      </trkpt>
      <trkpt lat="45.11023" lon="5.53136">
        <ele>995</ele>
        <time>2010-01-01T00:13:43Z</time>
      </trkpt>
      <trkpt lat="45.11014" lon="5.53133">
        <ele>996</ele>
        <time>2010-01-01T00:13:47Z</time>
      </trkpt>
      <trkpt lat="45.11004" lon="5.53131">
        <ele>998</ele>
        <time>2010-01-01T00:13:51Z</time>
      </trkpt>
      <trkpt lat="45.10995" lon="5.5313">
        <ele>999</ele>
        <time>2010-01-01T00:13:54Z</time>
      </trkpt>
      <trkpt lat="45.10984" lon="5.53126">
        <ele>999</ele>
        <time>2010-01-01T00:13:59Z</time>
      </trkpt>
      <trkpt lat="45.10975" lon="5.53122">
        <ele>1000</ele>
        <time>2010-01-01T00:14:03Z</time>
      </trkpt>
      <trkpt lat="45.10957" lon="5.53109">
        <ele>999</ele>
        <time>2010-01-01T00:14:11Z</time>
      </trkpt>
      <trkpt lat="45.10948" lon="5.53106">
        <ele>1000</ele>
        <time>2010-01-01T00:14:15Z</time>
      </trkpt>
      <trkpt lat="45.10939" lon="5.53103">
        <ele>1001</ele>
        <time>2010-01-01T00:14:18Z</time>
      </trkpt>
      <trkpt lat="45.10928" lon="5.53102">
        <ele>1002</ele>
        <time>2010-01-01T00:14:23Z</time>
      </trkpt>
      <trkpt lat="45.10919" lon="5.53101">
        <ele>1002</ele>
        <time>2010-01-01T00:14:26Z</time>
      </trkpt>
      <trkpt lat="45.10909" lon="5.53099">
        <ele>1003</ele>
        <time>2010-01-01T00:14:31Z</time>
      </trkpt>
      <trkpt lat="45.10898" lon="5.53098">
        <ele>1004</ele>
        <time>2010-01-01T00:14:35Z</time>
      </trkpt>
      <trkpt lat="45.10888" lon="5.53097">
        <ele>1005</ele>
        <time>2010-01-01T00:14:39Z</time>
      </trkpt>
      <trkpt lat="45.10878" lon="5.53097">
        <ele>1007</ele>
        <time>2010-01-01T00:14:43Z</time>
      </trkpt>
      <trkpt lat="45.10868" lon="5.53097">
        <ele>1008</ele>
        <time>2010-01-01T00:14:47Z</time>
      </trkpt>
      <trkpt lat="45.10858" lon="5.53098">
        <ele>1009</ele>
        <time>2010-01-01T00:14:51Z</time>
      </trkpt>
      <trkpt lat="45.10848" lon="5.531">
        <ele>1010</ele>
        <time>2010-01-01T00:14:55Z</time>
      </trkpt>
      <trkpt lat="45.10827" lon="5.53104">
        <ele>1013</ele>
        <time>2010-01-01T00:15:03Z</time>
      </trkpt>
      <trkpt lat="45.10817" lon="5.53103">
        <ele>1014</ele>
        <time>2010-01-01T00:15:07Z</time>
      </trkpt>
      <trkpt lat="45.10808" lon="5.53102">
        <ele>1015</ele>
        <time>2010-01-01T00:15:11Z</time>
      </trkpt>
      <trkpt lat="45.10799" lon="5.53101">
        <ele>1016</ele>
        <time>2010-01-01T00:15:15Z</time>
      </trkpt>
      <trkpt lat="45.1079" lon="5.531">
        <ele>1017</ele>
        <time>2010-01-01T00:15:18Z</time>
      </trkpt>
      <trkpt lat="45.10779" lon="5.53101">
        <ele>1018</ele>
        <time>2010-01-01T00:15:23Z</time>
      </trkpt>
      <trkpt lat="45.10769" lon="5.53103">
        <ele>1020</ele>
        <time>2010-01-01T00:15:27Z</time>
      </trkpt>
      <trkpt lat="45.10759" lon="5.53106">
        <ele>1021</ele>
        <time>2010-01-01T00:15:31Z</time>
      </trkpt>
      <trkpt lat="45.1075" lon="5.53109">
        <ele>1023</ele>
        <time>2010-01-01T00:15:34Z</time>
      </trkpt>
      <trkpt lat="45.10739" lon="5.53111">
        <ele>1023</ele>
        <time>2010-01-01T00:15:39Z</time>
      </trkpt>
      <trkpt lat="45.1073" lon="5.53113">
        <ele>1023</ele>
        <time>2010-01-01T00:15:43Z</time>
      </trkpt>
      <trkpt lat="45.1072" lon="5.53116">
        <ele>1024</ele>
        <time>2010-01-01T00:15:47Z</time>
      </trkpt>
      <trkpt lat="45.10701" lon="5.53119">
        <ele>1024</ele>
        <time>2010-01-01T00:15:54Z</time>
      </trkpt>
      <trkpt lat="45.10692" lon="5.53124">
        <ele>1025</ele>
        <time>2010-01-01T00:15:58Z</time>
      </trkpt>
      <trkpt lat="45.10683" lon="5.5313">
        <ele>1026</ele>
        <time>2010-01-01T00:16:02Z</time>
      </trkpt>
      <trkpt lat="45.10674" lon="5.53135">
        <ele>1028</ele>
        <time>2010-01-01T00:16:06Z</time>
      </trkpt>
      <trkpt lat="45.10664" lon="5.5314">
        <ele>1029</ele>
        <time>2010-01-01T00:16:10Z</time>
      </trkpt>
      <trkpt lat="45.10654" lon="5.53145">
        <ele>1030</ele>
        <time>2010-01-01T00:16:15Z</time>
      </trkpt>
      <trkpt lat="45.10645" lon="5.53153">
        <ele>1032</ele>
        <time>2010-01-01T00:16:19Z</time>
      </trkpt>
      <trkpt lat="45.10636" lon="5.53161">
        <ele>1034</ele>
        <time>2010-01-01T00:16:23Z</time>
      </trkpt>
      <trkpt lat="45.10628" lon="5.53168">
        <ele>1036</ele>
        <time>2010-01-01T00:16:27Z</time>
      </trkpt>
      <trkpt lat="45.10617" lon="5.53169">
        <ele>1037</ele>
        <time>2010-01-01T00:16:31Z</time>
      </trkpt>
      <trkpt lat="45.10608" lon="5.53168">
        <ele>1037</ele>
        <time>2010-01-01T00:16:35Z</time>
      </trkpt>
      <trkpt lat="45.10598" lon="5.53165">
        <ele>1035</ele>
        <time>2010-01-01T00:16:39Z</time>
      </trkpt>
      <trkpt lat="45.10577" lon="5.53159">
        <ele>1035</ele>
        <time>2010-01-01T00:16:48Z</time>
      </trkpt>
      <trkpt lat="45.10568" lon="5.53157">
        <ele>1035</ele>
        <time>2010-01-01T00:16:51Z</time>
      </trkpt>
      <trkpt lat="45.10557" lon="5.53156">
        <ele>1037</ele>
        <time>2010-01-01T00:16:56Z</time>
      </trkpt>
      <trkpt lat="45.1055" lon="5.53149">
        <ele>1035</ele>
        <time>2010-01-01T00:16:59Z</time>
      </trkpt>
      <trkpt lat="45.10538" lon="5.53148">
        <ele>1037</ele>
        <time>2010-01-01T00:17:04Z</time>
      </trkpt>
      <trkpt lat="45.10529" lon="5.53144">
        <ele>1037</ele>
        <time>2010-01-01T00:17:08Z</time>
      </trkpt>
      <trkpt lat="45.10519" lon="5.53139">
        <ele>1037</ele>
        <time>2010-01-01T00:17:12Z</time>
      </trkpt>
      <trkpt lat="45.10509" lon="5.53136">
        <ele>1037</ele>
        <time>2010-01-01T00:17:16Z</time>
      </trkpt>
      <trkpt lat="45.10499" lon="5.53129">
        <ele>1037</ele>
        <time>2010-01-01T00:17:20Z</time>
      </trkpt>
      <trkpt lat="45.1049" lon="5.53123">
        <ele>1038</ele>
        <time>2010-01-01T00:17:24Z</time>
      </trkpt>
      <trkpt lat="45.10481" lon="5.53115">
        <ele>1038</ele>
        <time>2010-01-01T00:17:28Z</time>
      </trkpt>
      <trkpt lat="45.10465" lon="5.53102">
        <ele>1039</ele>
        <time>2010-01-01T00:17:36Z</time>
      </trkpt>
      <trkpt lat="45.10456" lon="5.53094">
        <ele>1039</ele>
        <time>2010-01-01T00:17:40Z</time>
      </trkpt>
      <trkpt lat="45.10448" lon="5.53086">
        <ele>1040</ele>
        <time>2010-01-01T00:17:44Z</time>
      </trkpt>
      <trkpt lat="45.10439" lon="5.53079">
        <ele>1042</ele>
        <time>2010-01-01T00:17:48Z</time>
      </trkpt>
      <trkpt lat="45.10432" lon="5.53072">
        <ele>1043</ele>
        <time>2010-01-01T00:17:52Z</time>
      </trkpt>
      <trkpt lat="45.10423" lon="5.53066">
        <ele>1044</ele>
        <time>2010-01-01T00:17:56Z</time>
      </trkpt>
      <trkpt lat="45.10416" lon="5.53054">
        <ele>1045</ele>
        <time>2010-01-01T00:18:00Z</time>
      </trkpt>
      <trkpt lat="45.10409" lon="5.53045">
        <ele>1045</ele>
        <time>2010-01-01T00:18:04Z</time>
      </trkpt>
      <trkpt lat="45.10403" lon="5.53035">
        <ele>1044</ele>
        <time>2010-01-01T00:18:07Z</time>
      </trkpt>
      <trkpt lat="45.10392" lon="5.53013">
        <ele>1043</ele>
        <time>2010-01-01T00:18:15Z</time>
      </trkpt>
      <trkpt lat="45.10384" lon="5.53003">
        <ele>1043</ele>
        <time>2010-01-01T00:18:19Z</time>
      </trkpt>
      <trkpt lat="45.10377" lon="5.52993">
        <ele>1044</ele>
        <time>2010-01-01T00:18:23Z</time>
      </trkpt>
      <trkpt lat="45.10371" lon="5.52983">
        <ele>1044</ele>
        <time>2010-01-01T00:18:27Z</time>
      </trkpt>
      <trkpt lat="45.10365" lon="5.52972">
        <ele>1044</ele>
        <time>2010-01-01T00:18:31Z</time>
      </trkpt>
      <trkpt lat="45.10359" lon="5.52962">
        <ele>1044</ele>
        <time>2010-01-01T00:18:35Z</time>
      </trkpt>
      <trkpt lat="45.10349" lon="5.52957">
        <ele>1046</ele>
        <time>2010-01-01T00:18:39Z</time>
      </trkpt>
      <trkpt lat="45.1034" lon="5.52954">
        <ele>1048</ele>
        <time>2010-01-01T00:18:42Z</time>
      </trkpt>
      <trkpt lat="45.10331" lon="5.52957">
        <ele>1051</ele>
        <time>2010-01-01T00:18:46Z</time>
      </trkpt>
      <trkpt lat="45.10322" lon="5.52964">
        <ele>1052</ele>
        <time>2010-01-01T00:18:50Z</time>
      </trkpt>
      <trkpt lat="45.1031" lon="5.52985">
        <ele>1055</ele>
        <time>2010-01-01T00:18:58Z</time>
      </trkpt>
      <trkpt lat="45.10303" lon="5.52995">
        <ele>1057</ele>
        <time>2010-01-01T00:19:02Z</time>
      </trkpt>
      <trkpt lat="45.10296" lon="5.53004">
        <ele>1058</ele>
        <time>2010-01-01T00:19:06Z</time>
      </trkpt>
      <trkpt lat="45.10289" lon="5.53013">
        <ele>1060</ele>
        <time>2010-01-01T00:19:10Z</time>
      </trkpt>
      <trkpt lat="45.10281" lon="5.53022">
        <ele>1061</ele>
        <time>2010-01-01T00:19:14Z</time>
      </trkpt>
      <trkpt lat="45.10273" lon="5.53031">
        <ele>1062</ele>
        <time>2010-01-01T00:19:18Z</time>
      </trkpt>
      <trkpt lat="45.10266" lon="5.53043">
        <ele>1064</ele>
        <time>2010-01-01T00:19:22Z</time>
      </trkpt>
      <trkpt lat="45.10256" lon="5.53069">
        <ele>1068</ele>
        <time>2010-01-01T00:19:31Z</time>
      </trkpt>
      <trkpt lat="45.10251" lon="5.53081">
        <ele>1070</ele>
        <time>2010-01-01T00:19:34Z</time>
      </trkpt>
      <trkpt lat="45.10248" lon="5.53094">
        <ele>1071</ele>
        <time>2010-01-01T00:19:38Z</time>
      </trkpt>
      <trkpt lat="45.10246" lon="5.53109">
        <ele>1072</ele>
        <time>2010-01-01T00:19:43Z</time>
      </trkpt>
      <trkpt lat="45.10243" lon="5.53122">
        <ele>1073</ele>
        <time>2010-01-01T00:19:46Z</time>
      </trkpt>
      <trkpt lat="45.10241" lon="5.53134">
        <ele>1074</ele>
        <time>2010-01-01T00:19:50Z</time>
      </trkpt>
      <trkpt lat="45.1024" lon="5.53149">
        <ele>1076</ele>
        <time>2010-01-01T00:19:54Z</time>
      </trkpt>
      <trkpt lat="45.10243" lon="5.53164">
        <ele>1078</ele>
        <time>2010-01-01T00:19:59Z</time>
      </trkpt>
      <trkpt lat="45.10245" lon="5.53177">
        <ele>1081</ele>
        <time>2010-01-01T00:20:02Z</time>
      </trkpt>
      <trkpt lat="45.10252" lon="5.53187">
        <ele>1083</ele>
        <time>2010-01-01T00:20:06Z</time>
      </trkpt>
      <trkpt lat="45.10258" lon="5.53197">
        <ele>1085</ele>
        <time>2010-01-01T00:20:10Z</time>
      </trkpt>
      <trkpt lat="45.10273" lon="5.53217">
        <ele>1089</ele>
        <time>2010-01-01T00:20:18Z</time>
      </trkpt>
      <trkpt lat="45.1028" lon="5.53227">
        <ele>1091</ele>
        <time>2010-01-01T00:20:22Z</time>
      </trkpt>
      <trkpt lat="45.10288" lon="5.53234">
        <ele>1093</ele>
        <time>2010-01-01T00:20:26Z</time>
      </trkpt>
      <trkpt lat="45.10296" lon="5.53243">
        <ele>1094</ele>
        <time>2010-01-01T00:20:30Z</time>
      </trkpt>
      <trkpt lat="45.10304" lon="5.53249">
        <ele>1096</ele>
        <time>2010-01-01T00:20:34Z</time>
      </trkpt>
      <trkpt lat="45.10313" lon="5.53256">
        <ele>1098</ele>
        <time>2010-01-01T00:20:38Z</time>
      </trkpt>
      <trkpt lat="45.10322" lon="5.5326">
        <ele>1099</ele>
        <time>2010-01-01T00:20:42Z</time>
      </trkpt>
      <trkpt lat="45.10331" lon="5.53266">
        <ele>1100</ele>
        <time>2010-01-01T00:20:45Z</time>
      </trkpt>
      <trkpt lat="45.10338" lon="5.53274">
        <ele>1102</ele>
        <time>2010-01-01T00:20:49Z</time>
      </trkpt>
      <trkpt lat="45.10342" lon="5.53286">
        <ele>1104</ele>
        <time>2010-01-01T00:20:53Z</time>
      </trkpt>
      <trkpt lat="45.10339" lon="5.53305">
        <ele>1107</ele>
        <time>2010-01-01T00:20:58Z</time>
      </trkpt>
      <trkpt lat="45.1033" lon="5.53305">
        <ele>1107</ele>
        <time>2010-01-01T00:21:02Z</time>
      </trkpt>
      <trkpt lat="45.1032" lon="5.53305">
        <ele>1107</ele>
        <time>2010-01-01T00:21:06Z</time>
      </trkpt>
      <trkpt lat="45.10311" lon="5.53308">
        <ele>1108</ele>
        <time>2010-01-01T00:21:10Z</time>
      </trkpt>
      <trkpt lat="45.10301" lon="5.53311">
        <ele>1109</ele>
        <time>2010-01-01T00:21:14Z</time>
      </trkpt>
      <trkpt lat="45.10291" lon="5.53312">
        <ele>1110</ele>
        <time>2010-01-01T00:21:18Z</time>
      </trkpt>
      <trkpt lat="45.10282" lon="5.53314">
        <ele>1111</ele>
        <time>2010-01-01T00:21:22Z</time>
      </trkpt>
      <trkpt lat="45.10263" lon="5.53314">
        <ele>1112</ele>
        <time>2010-01-01T00:21:29Z</time>
      </trkpt>
      <trkpt lat="45.10254" lon="5.53317">
        <ele>1114</ele>
        <time>2010-01-01T00:21:33Z</time>
      </trkpt>
      <trkpt lat="45.10244" lon="5.53317">
        <ele>1115</ele>
        <time>2010-01-01T00:21:37Z</time>
      </trkpt>
      <trkpt lat="45.10234" lon="5.53315">
        <ele>1115</ele>
        <time>2010-01-01T00:21:41Z</time>
      </trkpt>
      <trkpt lat="45.10224" lon="5.53316">
        <ele>1117</ele>
        <time>2010-01-01T00:21:45Z</time>
      </trkpt>
      <trkpt lat="45.10214" lon="5.53318">
        <ele>1119</ele>
        <time>2010-01-01T00:21:49Z</time>
      </trkpt>
      <trkpt lat="45.10205" lon="5.53322">
        <ele>1121</ele>
        <time>2010-01-01T00:21:53Z</time>
      </trkpt>
      <trkpt lat="45.10195" lon="5.53322">
        <ele>1123</ele>
        <time>2010-01-01T00:21:57Z</time>
      </trkpt>
      <trkpt lat="45.10186" lon="5.53321">
        <ele>1123</ele>
        <time>2010-01-01T00:22:00Z</time>
      </trkpt>
      <trkpt lat="45.10167" lon="5.53324">
        <ele>1127</ele>
        <time>2010-01-01T00:22:08Z</time>
      </trkpt>
      <trkpt lat="45.10158" lon="5.53323">
        <ele>1128</ele>
        <time>2010-01-01T00:22:12Z</time>
      </trkpt>
      <trkpt lat="45.10148" lon="5.53323">
        <ele>1130</ele>
        <time>2010-01-01T00:22:16Z</time>
      </trkpt>
      <trkpt lat="45.10139" lon="5.53325">
        <ele>1134</ele>
        <time>2010-01-01T00:22:19Z</time>
      </trkpt>
      <trkpt lat="45.10129" lon="5.53323">
        <ele>1135</ele>
        <time>2010-01-01T00:22:23Z</time>
      </trkpt>
      <trkpt lat="45.1012" lon="5.53322">
        <ele>1137</ele>
        <time>2010-01-01T00:22:27Z</time>
      </trkpt>
      <trkpt lat="45.10111" lon="5.53316">
        <ele>1136</ele>
        <time>2010-01-01T00:22:31Z</time>
      </trkpt>
      <trkpt lat="45.10102" lon="5.53313">
        <ele>1137</ele>
        <time>2010-01-01T00:22:35Z</time>
      </trkpt>
      <trkpt lat="45.10083" lon="5.53308">
        <ele>1140</ele>
        <time>2010-01-01T00:22:42Z</time>
      </trkpt>
      <trkpt lat="45.10075" lon="5.53302">
        <ele>1141</ele>
        <time>2010-01-01T00:22:46Z</time>
      </trkpt>
      <trkpt lat="45.10066" lon="5.533">
        <ele>1144</ele>
        <time>2010-01-01T00:22:50Z</time>
      </trkpt>
      <trkpt lat="45.10057" lon="5.53296">
        <ele>1146</ele>
        <time>2010-01-01T00:22:53Z</time>
      </trkpt>
      <trkpt lat="45.1005" lon="5.53287">
        <ele>1146</ele>
        <time>2010-01-01T00:22:57Z</time>
      </trkpt>
      <trkpt lat="45.10032" lon="5.53282">
        <ele>1152</ele>
        <time>2010-01-01T00:23:05Z</time>
      </trkpt>
      <trkpt lat="45.10023" lon="5.53278">
        <ele>1154</ele>
        <time>2010-01-01T00:23:09Z</time>
      </trkpt>
      <trkpt lat="45.10013" lon="5.53274">
        <ele>1157</ele>
        <time>2010-01-01T00:23:13Z</time>
      </trkpt>
      <trkpt lat="45.10005" lon="5.53268">
        <ele>1159</ele>
        <time>2010-01-01T00:23:16Z</time>
      </trkpt>
      <trkpt lat="45.09996" lon="5.53261">
        <ele>1160</ele>
        <time>2010-01-01T00:23:20Z</time>
      </trkpt>
      <trkpt lat="45.09988" lon="5.53253">
        <ele>1161</ele>
        <time>2010-01-01T00:23:24Z</time>
      </trkpt>
      <trkpt lat="45.0998" lon="5.53247">
        <ele>1163</ele>
        <time>2010-01-01T00:23:28Z</time>
      </trkpt>
      <trkpt lat="45.0997" lon="5.53246">
        <ele>1166</ele>
        <time>2010-01-01T00:23:32Z</time>
      </trkpt>
      <trkpt lat="45.09952" lon="5.53241">
        <ele>1172</ele>
        <time>2010-01-01T00:23:39Z</time>
      </trkpt>
      <trkpt lat="45.09943" lon="5.53237">
        <ele>1174</ele>
        <time>2010-01-01T00:23:43Z</time>
      </trkpt>
      <trkpt lat="45.09934" lon="5.53232">
        <ele>1177</ele>
        <time>2010-01-01T00:23:47Z</time>
      </trkpt>
      <trkpt lat="45.09925" lon="5.53231">
        <ele>1180</ele>
        <time>2010-01-01T00:23:51Z</time>
      </trkpt>
      <trkpt lat="45.09914" lon="5.53229">
        <ele>1183</ele>
        <time>2010-01-01T00:23:55Z</time>
      </trkpt>
      <trkpt lat="45.09896" lon="5.53228">
        <ele>1188</ele>
        <time>2010-01-01T00:24:02Z</time>
      </trkpt>
      <trkpt lat="45.09886" lon="5.53225">
        <ele>1190</ele>
        <time>2010-01-01T00:24:06Z</time>
      </trkpt>
      <trkpt lat="45.09876" lon="5.53223">
        <ele>1192</ele>
        <time>2010-01-01T00:24:10Z</time>
      </trkpt>
      <trkpt lat="45.09867" lon="5.53218">
        <ele>1193</ele>
        <time>2010-01-01T00:24:14Z</time>
      </trkpt>
      <trkpt lat="45.09857" lon="5.53216">
        <ele>1195</ele>
        <time>2010-01-01T00:24:18Z</time>
      </trkpt>
      <trkpt lat="45.09847" lon="5.53215">
        <ele>1198</ele>
        <time>2010-01-01T00:24:22Z</time>
      </trkpt>
      <trkpt lat="45.09838" lon="5.53212">
        <ele>1199</ele>
        <time>2010-01-01T00:24:26Z</time>
      </trkpt>
      <trkpt lat="45.09819" lon="5.53205">
        <ele>1200</ele>
        <time>2010-01-01T00:24:34Z</time>
      </trkpt>
      <trkpt lat="45.09809" lon="5.53201">
        <ele>1200</ele>
        <time>2010-01-01T00:24:38Z</time>
      </trkpt>
      <trkpt lat="45.09798" lon="5.53196">
        <ele>1199</ele>
        <time>2010-01-01T00:24:42Z</time>
      </trkpt>
      <trkpt lat="45.09789" lon="5.53193">
        <ele>1199</ele>
        <time>2010-01-01T00:24:46Z</time>
      </trkpt>
      <trkpt lat="45.0978" lon="5.53188">
        <ele>1198</ele>
        <time>2010-01-01T00:24:50Z</time>
      </trkpt>
      <trkpt lat="45.09771" lon="5.53183">
        <ele>1197</ele>
        <time>2010-01-01T00:24:54Z</time>
      </trkpt>
      <trkpt lat="45.0976" lon="5.53176">
        <ele>1196</ele>
        <time>2010-01-01T00:24:59Z</time>
      </trkpt>
      <trkpt lat="45.0975" lon="5.53172">
        <ele>1196</ele>
        <time>2010-01-01T00:25:03Z</time>
      </trkpt>
      <trkpt lat="45.09739" lon="5.53169">
        <ele>1194</ele>
        <time>2010-01-01T00:25:07Z</time>
      </trkpt>
      <trkpt lat="45.09729" lon="5.53168">
        <ele>1193</ele>
        <time>2010-01-01T00:25:11Z</time>
      </trkpt>
      <trkpt lat="45.09719" lon="5.53167">
        <ele>1192</ele>
        <time>2010-01-01T00:25:16Z</time>
      </trkpt>
      <trkpt lat="45.09717" lon="5.53181">
        <ele>1196</ele>
        <time>2010-01-01T00:25:19Z</time>
      </trkpt>
      <trkpt lat="45.09706" lon="5.53203">
        <ele>1204</ele>
        <time>2010-01-01T00:25:27Z</time>
      </trkpt>
      <trkpt lat="45.09697" lon="5.5321">
        <ele>1206</ele>
        <time>2010-01-01T00:25:31Z</time>
      </trkpt>
      <trkpt lat="45.09688" lon="5.53214">
        <ele>1207</ele>
        <time>2010-01-01T00:25:35Z</time>
      </trkpt>
      <trkpt lat="45.09678" lon="5.53217">
        <ele>1208</ele>
        <time>2010-01-01T00:25:39Z</time>
      </trkpt>
      <trkpt lat="45.09667" lon="5.53218">
        <ele>1208</ele>
        <time>2010-01-01T00:25:43Z</time>
      </trkpt>
      <trkpt lat="45.09658" lon="5.5322">
        <ele>1208</ele>
        <time>2010-01-01T00:25:47Z</time>
      </trkpt>
      <trkpt lat="45.09648" lon="5.53223">
        <ele>1208</ele>
        <time>2010-01-01T00:25:51Z</time>
      </trkpt>
      <trkpt lat="45.09639" lon="5.53225">
        <ele>1208</ele>
        <time>2010-01-01T00:25:55Z</time>
      </trkpt>
      <trkpt lat="45.0963" lon="5.53225">
        <ele>1207</ele>
        <time>2010-01-01T00:25:58Z</time>
      </trkpt>
      <trkpt lat="45.09619" lon="5.53226">
        <ele>1206</ele>
        <time>2010-01-01T00:26:03Z</time>
      </trkpt>
      <trkpt lat="45.09609" lon="5.53225">
        <ele>1205</ele>
        <time>2010-01-01T00:26:07Z</time>
      </trkpt>
      <trkpt lat="45.09591" lon="5.53231">
        <ele>1206</ele>
        <time>2010-01-01T00:26:14Z</time>
      </trkpt>
      <trkpt lat="45.09581" lon="5.53236">
        <ele>1207</ele>
        <time>2010-01-01T00:26:19Z</time>
      </trkpt>
      <trkpt lat="45.0957" lon="5.53239">
        <ele>1207</ele>
        <time>2010-01-01T00:26:23Z</time>
      </trkpt>
      <trkpt lat="45.0956" lon="5.53242">
        <ele>1208</ele>
        <time>2010-01-01T00:26:27Z</time>
      </trkpt>
      <trkpt lat="45.09551" lon="5.53247">
        <ele>1209</ele>
        <time>2010-01-01T00:26:31Z</time>
      </trkpt>
      <trkpt lat="45.09542" lon="5.53252">
        <ele>1210</ele>
        <time>2010-01-01T00:26:35Z</time>
      </trkpt>
      <trkpt lat="45.09532" lon="5.53255">
        <ele>1210</ele>
        <time>2010-01-01T00:26:39Z</time>
      </trkpt>
      <trkpt lat="45.09523" lon="5.53259">
        <ele>1211</ele>
        <time>2010-01-01T00:26:43Z</time>
      </trkpt>
      <trkpt lat="45.09513" lon="5.53256">
        <ele>1209</ele>
        <time>2010-01-01T00:26:47Z</time>
      </trkpt>
      <trkpt lat="45.09502" lon="5.53253">
        <ele>1206</ele>
        <time>2010-01-01T00:26:51Z</time>
      </trkpt>
      <trkpt lat="45.09492" lon="5.53249">
        <ele>1204</ele>
        <time>2010-01-01T00:26:55Z</time>
      </trkpt>
      <trkpt lat="45.09483" lon="5.53245">
        <ele>1203</ele>
        <time>2010-01-01T00:26:59Z</time>
      </trkpt>
      <trkpt lat="45.09474" lon="5.53241">
        <ele>1202</ele>
        <time>2010-01-01T00:27:03Z</time>
      </trkpt>
      <trkpt lat="45.09464" lon="5.53236">
        <ele>1201</ele>
        <time>2010-01-01T00:27:07Z</time>
      </trkpt>
      <trkpt lat="45.09445" lon="5.53225">
        <ele>1198</ele>
        <time>2010-01-01T00:27:16Z</time>
      </trkpt>
      <trkpt lat="45.09434" lon="5.53224">
        <ele>1199</ele>
        <time>2010-01-01T00:27:20Z</time>
      </trkpt>
      <trkpt lat="45.09424" lon="5.5322">
        <ele>1198</ele>
        <time>2010-01-01T00:27:24Z</time>
      </trkpt>
      <trkpt lat="45.09415" lon="5.53219">
        <ele>1199</ele>
        <time>2010-01-01T00:27:28Z</time>
      </trkpt>
      <trkpt lat="45.09404" lon="5.53219">
        <ele>1200</ele>
        <time>2010-01-01T00:27:32Z</time>
      </trkpt>
      <trkpt lat="45.09394" lon="5.53219">
        <ele>1202</ele>
        <time>2010-01-01T00:27:36Z</time>
      </trkpt>
      <trkpt lat="45.09384" lon="5.5322">
        <ele>1203</ele>
        <time>2010-01-01T00:27:40Z</time>
      </trkpt>
      <trkpt lat="45.09375" lon="5.5322">
        <ele>1204</ele>
        <time>2010-01-01T00:27:44Z</time>
      </trkpt>
      <trkpt lat="45.09365" lon="5.5322">
        <ele>1206</ele>
        <time>2010-01-01T00:27:48Z</time>
      </trkpt>
      <trkpt lat="45.09354" lon="5.53222">
        <ele>1208</ele>
        <time>2010-01-01T00:27:52Z</time>
      </trkpt>
      <trkpt lat="45.09345" lon="5.53224">
        <ele>1210</ele>
        <time>2010-01-01T00:27:56Z</time>
      </trkpt>
      <trkpt lat="45.09335" lon="5.53226">
        <ele>1212</ele>
        <time>2010-01-01T00:28:00Z</time>
      </trkpt>
      <trkpt lat="45.09316" lon="5.53227">
        <ele>1216</ele>
        <time>2010-01-01T00:28:08Z</time>
      </trkpt>
      <trkpt lat="45.09307" lon="5.53229">
        <ele>1218</ele>
        <time>2010-01-01T00:28:11Z</time>
      </trkpt>
      <trkpt lat="45.09296" lon="5.53229">
        <ele>1220</ele>
        <time>2010-01-01T00:28:15Z</time>
      </trkpt>
      <trkpt lat="45.09287" lon="5.5323">
        <ele>1221</ele>
        <time>2010-01-01T00:28:19Z</time>
      </trkpt>
      <trkpt lat="45.09277" lon="5.5323">
        <ele>1223</ele>
        <time>2010-01-01T00:28:23Z</time>
      </trkpt>
      <trkpt lat="45.09267" lon="5.53229">
        <ele>1224</ele>
        <time>2010-01-01T00:28:27Z</time>
      </trkpt>
      <trkpt lat="45.09257" lon="5.53226">
        <ele>1224</ele>
        <time>2010-01-01T00:28:31Z</time>
      </trkpt>
      <trkpt lat="45.09246" lon="5.53221">
        <ele>1223</ele>
        <time>2010-01-01T00:28:36Z</time>
      </trkpt>
      <trkpt lat="45.09236" lon="5.53216">
        <ele>1223</ele>
        <time>2010-01-01T00:28:40Z</time>
      </trkpt>
      <trkpt lat="45.09226" lon="5.53212">
        <ele>1223</ele>
        <time>2010-01-01T00:28:44Z</time>
      </trkpt>
      <trkpt lat="45.09216" lon="5.5321">
        <ele>1223</ele>
        <time>2010-01-01T00:28:48Z</time>
      </trkpt>
      <trkpt lat="45.09197" lon="5.53198">
        <ele>1222</ele>
        <time>2010-01-01T00:28:57Z</time>
      </trkpt>
      <trkpt lat="45.09188" lon="5.53198">
        <ele>1223</ele>
        <time>2010-01-01T00:29:00Z</time>
      </trkpt>
      <trkpt lat="45.09178" lon="5.53198">
        <ele>1225</ele>
        <time>2010-01-01T00:29:04Z</time>
      </trkpt>
      <trkpt lat="45.09168" lon="5.53193">
        <ele>1224</ele>
        <time>2010-01-01T00:29:08Z</time>
      </trkpt>
      <trkpt lat="45.09159" lon="5.5319">
        <ele>1225</ele>
        <time>2010-01-01T00:29:12Z</time>
      </trkpt>
      <trkpt lat="45.09149" lon="5.53188">
        <ele>1225</ele>
        <time>2010-01-01T00:29:16Z</time>
      </trkpt>
      <trkpt lat="45.09139" lon="5.53184">
        <ele>1225</ele>
        <time>2010-01-01T00:29:20Z</time>
      </trkpt>
      <trkpt lat="45.09128" lon="5.53181">
        <ele>1226</ele>
        <time>2010-01-01T00:29:25Z</time>
      </trkpt>
      <trkpt lat="45.09117" lon="5.5318">
        <ele>1227</ele>
        <time>2010-01-01T00:29:29Z</time>
      </trkpt>
      <trkpt lat="45.09106" lon="5.53175">
        <ele>1227</ele>
        <time>2010-01-01T00:29:34Z</time>
      </trkpt>
      <trkpt lat="45.09097" lon="5.53169">
        <ele>1226</ele>
        <time>2010-01-01T00:29:38Z</time>
      </trkpt>
      <trkpt lat="45.09087" lon="5.53165">
        <ele>1227</ele>
        <time>2010-01-01T00:29:42Z</time>
      </trkpt>
      <trkpt lat="45.09067" lon="5.5315">
        <ele>1223</ele>
        <time>2010-01-01T00:29:51Z</time>
      </trkpt>
      <trkpt lat="45.09057" lon="5.53146">
        <ele>1222</ele>
        <time>2010-01-01T00:29:55Z</time>
      </trkpt>
      <trkpt lat="45.09048" lon="5.53144">
        <ele>1222</ele>
        <time>2010-01-01T00:29:59Z</time>
      </trkpt>
      <trkpt lat="45.09036" lon="5.53139">
        <ele>1221</ele>
        <time>2010-01-01T00:30:04Z</time>
      </trkpt>
      <trkpt lat="45.09026" lon="5.53135">
        <ele>1221</ele>
        <time>2010-01-01T00:30:08Z</time>
      </trkpt>
      <trkpt lat="45.09015" lon="5.53132">
        <ele>1221</ele>
        <time>2010-01-01T00:30:13Z</time>
      </trkpt>
      <trkpt lat="45.09004" lon="5.53129">
        <ele>1222</ele>
        <time>2010-01-01T00:30:17Z</time>
      </trkpt>
      <trkpt lat="45.08993" lon="5.53123">
        <ele>1219</ele>
        <time>2010-01-01T00:30:22Z</time>
      </trkpt>
      <trkpt lat="45.08984" lon="5.53118">
        <ele>1217</ele>
        <time>2010-01-01T00:30:26Z</time>
      </trkpt>
      <trkpt lat="45.08974" lon="5.53115">
        <ele>1215</ele>
        <time>2010-01-01T00:30:30Z</time>
      </trkpt>
      <trkpt lat="45.08964" lon="5.53109">
        <ele>1212</ele>
        <time>2010-01-01T00:30:34Z</time>
      </trkpt>
      <trkpt lat="45.08952" lon="5.53104">
        <ele>1210</ele>
        <time>2010-01-01T00:30:39Z</time>
      </trkpt>
      <trkpt lat="45.08942" lon="5.53101">
        <ele>1208</ele>
        <time>2010-01-01T00:30:43Z</time>
      </trkpt>
      <trkpt lat="45.08937" lon="5.53113">
        <ele>1209</ele>
        <time>2010-01-01T00:30:47Z</time>
      </trkpt>
      <trkpt lat="45.08933" lon="5.53139">
        <ele>1211</ele>
        <time>2010-01-01T00:30:55Z</time>
      </trkpt>
      <trkpt lat="45.0893" lon="5.53153">
        <ele>1212</ele>
        <time>2010-01-01T00:30:59Z</time>
      </trkpt>
      <trkpt lat="45.08925" lon="5.53164">
        <ele>1212</ele>
        <time>2010-01-01T00:31:03Z</time>
      </trkpt>
      <trkpt lat="45.0892" lon="5.53175">
        <ele>1211</ele>
        <time>2010-01-01T00:31:06Z</time>
      </trkpt>
      <trkpt lat="45.08913" lon="5.53186">
        <ele>1210</ele>
        <time>2010-01-01T00:31:10Z</time>
      </trkpt>
      <trkpt lat="45.08907" lon="5.53197">
        <ele>1208</ele>
        <time>2010-01-01T00:31:14Z</time>
      </trkpt>
      <trkpt lat="45.08902" lon="5.53208">
        <ele>1206</ele>
        <time>2010-01-01T00:31:18Z</time>
      </trkpt>
      <trkpt lat="45.08896" lon="5.53219">
        <ele>1204</ele>
        <time>2010-01-01T00:31:22Z</time>
      </trkpt>
      <trkpt lat="45.08891" lon="5.53231">
        <ele>1203</ele>
        <time>2010-01-01T00:31:26Z</time>
      </trkpt>
      <trkpt lat="45.08886" lon="5.53242">
        <ele>1201</ele>
        <time>2010-01-01T00:31:30Z</time>
      </trkpt>
      <trkpt lat="45.08881" lon="5.53253">
        <ele>1199</ele>
        <time>2010-01-01T00:31:33Z</time>
      </trkpt>
      <trkpt lat="45.08878" lon="5.53265">
        <ele>1197</ele>
        <time>2010-01-01T00:31:37Z</time>
      </trkpt>
      <trkpt lat="45.08875" lon="5.53279">
        <ele>1196</ele>
        <time>2010-01-01T00:31:41Z</time>
      </trkpt>
      <trkpt lat="45.08872" lon="5.53294">
        <ele>1194</ele>
        <time>2010-01-01T00:31:45Z</time>
      </trkpt>
      <trkpt lat="45.08871" lon="5.5331">
        <ele>1194</ele>
        <time>2010-01-01T00:31:50Z</time>
      </trkpt>
      <trkpt lat="45.08868" lon="5.5334">
        <ele>1192</ele>
        <time>2010-01-01T00:31:58Z</time>
      </trkpt>
      <trkpt lat="45.08867" lon="5.53353">
        <ele>1190</ele>
        <time>2010-01-01T00:32:02Z</time>
      </trkpt>
      <trkpt lat="45.08867" lon="5.53369">
        <ele>1189</ele>
        <time>2010-01-01T00:32:07Z</time>
      </trkpt>
      <trkpt lat="45.08868" lon="5.53381">
        <ele>1188</ele>
        <time>2010-01-01T00:32:10Z</time>
      </trkpt>
      <trkpt lat="45.08871" lon="5.53395">
        <ele>1188</ele>
        <time>2010-01-01T00:32:14Z</time>
      </trkpt>
      <trkpt lat="45.08873" lon="5.53411">
        <ele>1188</ele>
        <time>2010-01-01T00:32:19Z</time>
      </trkpt>
      <trkpt lat="45.08874" lon="5.53425">
        <ele>1188</ele>
        <time>2010-01-01T00:32:23Z</time>
      </trkpt>
      <trkpt lat="45.08872" lon="5.53441">
        <ele>1186</ele>
        <time>2010-01-01T00:32:27Z</time>
      </trkpt>
      <trkpt lat="45.08871" lon="5.53457">
        <ele>1185</ele>
        <time>2010-01-01T00:32:32Z</time>
      </trkpt>
      <trkpt lat="45.08867" lon="5.53472">
        <ele>1182</ele>
        <time>2010-01-01T00:32:37Z</time>
      </trkpt>
      <trkpt lat="45.08861" lon="5.53486">
        <ele>1179</ele>
        <time>2010-01-01T00:32:41Z</time>
      </trkpt>
      <trkpt lat="45.08854" lon="5.535">
        <ele>1174</ele>
        <time>2010-01-01T00:32:46Z</time>
      </trkpt>
      <trkpt lat="45.08847" lon="5.53512">
        <ele>1172</ele>
        <time>2010-01-01T00:32:50Z</time>
      </trkpt>
      <trkpt lat="45.0884" lon="5.53522">
        <ele>1170</ele>
        <time>2010-01-01T00:32:54Z</time>
      </trkpt>
      <trkpt lat="45.08825" lon="5.53543">
        <ele>1165</ele>
        <time>2010-01-01T00:33:03Z</time>
      </trkpt>
      <trkpt lat="45.08816" lon="5.53552">
        <ele>1163</ele>
        <time>2010-01-01T00:33:07Z</time>
      </trkpt>
      <trkpt lat="45.08809" lon="5.53563">
        <ele>1161</ele>
        <time>2010-01-01T00:33:11Z</time>
      </trkpt>
      <trkpt lat="45.088" lon="5.53574">
        <ele>1159</ele>
        <time>2010-01-01T00:33:16Z</time>
      </trkpt>
      <trkpt lat="45.08792" lon="5.53584">
        <ele>1158</ele>
        <time>2010-01-01T00:33:21Z</time>
      </trkpt>
      <trkpt lat="45.08782" lon="5.53587">
        <ele>1154</ele>
        <time>2010-01-01T00:33:25Z</time>
      </trkpt>
      <trkpt lat="45.08773" lon="5.53593">
        <ele>1152</ele>
        <time>2010-01-01T00:33:28Z</time>
      </trkpt>
      <trkpt lat="45.08763" lon="5.53596">
        <ele>1149</ele>
        <time>2010-01-01T00:33:33Z</time>
      </trkpt>
      <trkpt lat="45.08752" lon="5.53594">
        <ele>1143</ele>
        <time>2010-01-01T00:33:37Z</time>
      </trkpt>
      <trkpt lat="45.08743" lon="5.53598">
        <ele>1140</ele>
        <time>2010-01-01T00:33:41Z</time>
      </trkpt>
      <trkpt lat="45.08734" lon="5.53602">
        <ele>1138</ele>
        <time>2010-01-01T00:33:45Z</time>
      </trkpt>
      <trkpt lat="45.08726" lon="5.53609">
        <ele>1136</ele>
        <time>2010-01-01T00:33:48Z</time>
      </trkpt>
      <trkpt lat="45.08716" lon="5.53614">
        <ele>1133</ele>
        <time>2010-01-01T00:33:53Z</time>
      </trkpt>
      <trkpt lat="45.08699" lon="5.53627">
        <ele>1130</ele>
        <time>2010-01-01T00:34:00Z</time>
      </trkpt>
      <trkpt lat="45.08692" lon="5.53636">
        <ele>1129</ele>
        <time>2010-01-01T00:34:04Z</time>
      </trkpt>
      <trkpt lat="45.08685" lon="5.53647">
        <ele>1130</ele>
        <time>2010-01-01T00:34:08Z</time>
      </trkpt>
      <trkpt lat="45.08678" lon="5.53657">
        <ele>1131</ele>
        <time>2010-01-01T00:34:12Z</time>
      </trkpt>
      <trkpt lat="45.0867" lon="5.53666">
        <ele>1130</ele>
        <time>2010-01-01T00:34:16Z</time>
      </trkpt>
      <trkpt lat="45.08663" lon="5.53677">
        <ele>1132</ele>
        <time>2010-01-01T00:34:21Z</time>
      </trkpt>
      <trkpt lat="45.08654" lon="5.53686">
        <ele>1134</ele>
        <time>2010-01-01T00:34:25Z</time>
      </trkpt>
      <trkpt lat="45.08649" lon="5.53697">
        <ele>1138</ele>
        <time>2010-01-01T00:34:28Z</time>
      </trkpt>
      <trkpt lat="45.08641" lon="5.53705">
        <ele>1140</ele>
        <time>2010-01-01T00:34:32Z</time>
      </trkpt>
      <trkpt lat="45.08632" lon="5.53705">
        <ele>1140</ele>
        <time>2010-01-01T00:34:36Z</time>
      </trkpt>
      <trkpt lat="45.0862" lon="5.53697">
        <ele>1136</ele>
        <time>2010-01-01T00:34:42Z</time>
      </trkpt>
      <trkpt lat="45.08612" lon="5.5369">
        <ele>1132</ele>
        <time>2010-01-01T00:34:45Z</time>
      </trkpt>
      <trkpt lat="45.08594" lon="5.53669">
        <ele>1122</ele>
        <time>2010-01-01T00:34:55Z</time>
      </trkpt>
      <trkpt lat="45.08586" lon="5.5366">
        <ele>1117</ele>
        <time>2010-01-01T00:34:59Z</time>
      </trkpt>
      <trkpt lat="45.08579" lon="5.53649">
        <ele>1113</ele>
        <time>2010-01-01T00:35:03Z</time>
      </trkpt>
      <trkpt lat="45.08569" lon="5.5364">
        <ele>1110</ele>
        <time>2010-01-01T00:35:08Z</time>
      </trkpt>
      <trkpt lat="45.0856" lon="5.53632">
        <ele>1107</ele>
        <time>2010-01-01T00:35:12Z</time>
      </trkpt>
      <trkpt lat="45.08551" lon="5.53623">
        <ele>1104</ele>
        <time>2010-01-01T00:35:16Z</time>
      </trkpt>
      <trkpt lat="45.08544" lon="5.53615">
        <ele>1101</ele>
        <time>2010-01-01T00:35:20Z</time>
      </trkpt>
      <trkpt lat="45.08535" lon="5.53607">
        <ele>1097</ele>
        <time>2010-01-01T00:35:24Z</time>
      </trkpt>
      <trkpt lat="45.08528" lon="5.536">
        <ele>1094</ele>
        <time>2010-01-01T00:35:28Z</time>
      </trkpt>
      <trkpt lat="45.0852" lon="5.53592">
        <ele>1091</ele>
        <time>2010-01-01T00:35:32Z</time>
      </trkpt>
      <trkpt lat="45.08512" lon="5.53584">
        <ele>1088</ele>
        <time>2010-01-01T00:35:35Z</time>
      </trkpt>
      <trkpt lat="45.08502" lon="5.53573">
        <ele>1084</ele>
        <time>2010-01-01T00:35:40Z</time>
      </trkpt>
      <trkpt lat="45.08494" lon="5.53565">
        <ele>1082</ele>
        <time>2010-01-01T00:35:44Z</time>
      </trkpt>
      <trkpt lat="45.08486" lon="5.53556">
        <ele>1079</ele>
        <time>2010-01-01T00:35:48Z</time>
      </trkpt>
      <trkpt lat="45.08474" lon="5.53536">
        <ele>1073</ele>
        <time>2010-01-01T00:35:56Z</time>
      </trkpt>
      <trkpt lat="45.08466" lon="5.53524">
        <ele>1069</ele>
        <time>2010-01-01T00:36:00Z</time>
      </trkpt>
      <trkpt lat="45.08445" lon="5.53495">
        <ele>1062</ele>
        <time>2010-01-01T00:36:12Z</time>
      </trkpt>
      <trkpt lat="45.08419" lon="5.53479">
        <ele>1062</ele>
        <time>2010-01-01T00:36:24Z</time>
      </trkpt>
      <trkpt lat="45.08385" lon="5.53482">
        <ele>1060</ele>
        <time>2010-01-01T00:36:37Z</time>
      </trkpt>
      <trkpt lat="45.08361" lon="5.5347">
        <ele>1056</ele>
        <time>2010-01-01T00:36:47Z</time>
      </trkpt>
      <trkpt lat="45.08338" lon="5.53435">
        <ele>1048</ele>
        <time>2010-01-01T00:37:01Z</time>
      </trkpt>
      <trkpt lat="45.08312" lon="5.53457">
        <ele>1047</ele>
        <time>2010-01-01T00:37:13Z</time>
      </trkpt>
      <trkpt lat="45.08297" lon="5.5347">
        <ele>1046</ele>
        <time>2010-01-01T00:37:20Z</time>
      </trkpt>
      <trkpt lat="45.08232" lon="5.53495">
        <ele>1039</ele>
        <time>2010-01-01T00:37:47Z</time>
      </trkpt>
      <trkpt lat="45.0819" lon="5.53517">
        <ele>1035</ele>
        <time>2010-01-01T00:38:05Z</time>
      </trkpt>
      <trkpt lat="45.0815" lon="5.53536">
        <ele>1032</ele>
        <time>2010-01-01T00:38:22Z</time>
      </trkpt>
      <trkpt lat="45.08053" lon="5.53572">
        <ele>1020</ele>
        <time>2010-01-01T00:39:02Z</time>
      </trkpt>
      <trkpt lat="45.0802" lon="5.53625">
        <ele>1024</ele>
        <time>2010-01-01T00:39:22Z</time>
      </trkpt>
      <trkpt lat="45.0797" lon="5.53617">
        <ele>1009</ele>
        <time>2010-01-01T00:39:42Z</time>
      </trkpt>
      <trkpt lat="45.07925" lon="5.53661">
        <ele>1003</ele>
        <time>2010-01-01T00:40:04Z</time>
      </trkpt>
      <trkpt lat="45.07922" lon="5.53729">
        <ele>1014</ele>
        <time>2010-01-01T00:40:23Z</time>
      </trkpt>
      <trkpt lat="45.07888" lon="5.53748">
        <ele>1008</ele>
        <time>2010-01-01T00:40:38Z</time>
      </trkpt>
      <trkpt lat="45.07831" lon="5.5374">
        <ele>992</ele>
        <time>2010-01-01T00:41:01Z</time>
      </trkpt>
      <trkpt lat="45.07777" lon="5.53792">
        <ele>993</ele>
        <time>2010-01-01T00:41:27Z</time>
      </trkpt>
      <trkpt lat="45.07725" lon="5.53815">
        <ele>984</ele>
        <time>2010-01-01T00:41:49Z</time>
      </trkpt>
      <trkpt lat="45.07718" lon="5.53846">
        <ele>988</ele>
        <time>2010-01-01T00:41:58Z</time>
      </trkpt>
      <trkpt lat="45.07682" lon="5.53886">
        <ele>986</ele>
        <time>2010-01-01T00:42:16Z</time>
      </trkpt>
      <trkpt lat="45.07673" lon="5.53891">
        <ele>985</ele>
        <time>2010-01-01T00:42:20Z</time>
      </trkpt>
      <trkpt lat="45.07663" lon="5.53897">
        <ele>983</ele>
        <time>2010-01-01T00:42:24Z</time>
      </trkpt>
      <trkpt lat="45.07654" lon="5.53902">
        <ele>982</ele>
        <time>2010-01-01T00:42:29Z</time>
      </trkpt>
      <trkpt lat="45.07644" lon="5.53907">
        <ele>981</ele>
        <time>2010-01-01T00:42:33Z</time>
      </trkpt>
      <trkpt lat="45.07633" lon="5.5391">
        <ele>979</ele>
        <time>2010-01-01T00:42:37Z</time>
      </trkpt>
      <trkpt lat="45.07622" lon="5.53914">
        <ele>977</ele>
        <time>2010-01-01T00:42:42Z</time>
      </trkpt>
      <trkpt lat="45.07612" lon="5.53918">
        <ele>975</ele>
        <time>2010-01-01T00:42:46Z</time>
      </trkpt>
      <trkpt lat="45.07602" lon="5.53921">
        <ele>974</ele>
        <time>2010-01-01T00:42:50Z</time>
      </trkpt>
      <trkpt lat="45.07585" lon="5.53928">
        <ele>972</ele>
        <time>2010-01-01T00:42:57Z</time>
      </trkpt>
      <trkpt lat="45.07574" lon="5.53931">
        <ele>971</ele>
        <time>2010-01-01T00:43:01Z</time>
      </trkpt>
      <trkpt lat="45.07563" lon="5.53934">
        <ele>970</ele>
        <time>2010-01-01T00:43:06Z</time>
      </trkpt>
      <trkpt lat="45.07553" lon="5.53939">
        <ele>970</ele>
        <time>2010-01-01T00:43:10Z</time>
      </trkpt>
      <trkpt lat="45.07543" lon="5.53946">
        <ele>970</ele>
        <time>2010-01-01T00:43:15Z</time>
      </trkpt>
      <trkpt lat="45.07533" lon="5.53954">
        <ele>971</ele>
        <time>2010-01-01T00:43:19Z</time>
      </trkpt>
      <trkpt lat="45.07524" lon="5.53962">
        <ele>971</ele>
        <time>2010-01-01T00:43:24Z</time>
      </trkpt>
      <trkpt lat="45.07513" lon="5.5397">
        <ele>971</ele>
        <time>2010-01-01T00:43:28Z</time>
      </trkpt>
      <trkpt lat="45.07502" lon="5.53974">
        <ele>970</ele>
        <time>2010-01-01T00:43:33Z</time>
      </trkpt>
      <trkpt lat="45.07492" lon="5.53976">
        <ele>968</ele>
        <time>2010-01-01T00:43:37Z</time>
      </trkpt>
      <trkpt lat="45.0748" lon="5.53973">
        <ele>966</ele>
        <time>2010-01-01T00:43:42Z</time>
      </trkpt>
      <trkpt lat="45.0747" lon="5.53972">
        <ele>964</ele>
        <time>2010-01-01T00:43:46Z</time>
      </trkpt>
      <trkpt lat="45.07459" lon="5.53974">
        <ele>962</ele>
        <time>2010-01-01T00:43:50Z</time>
      </trkpt>
      <trkpt lat="45.0745" lon="5.53979">
        <ele>961</ele>
        <time>2010-01-01T00:43:54Z</time>
      </trkpt>
      <trkpt lat="45.0744" lon="5.53982">
        <ele>960</ele>
        <time>2010-01-01T00:43:58Z</time>
      </trkpt>
      <trkpt lat="45.07418" lon="5.53985">
        <ele>956</ele>
        <time>2010-01-01T00:44:07Z</time>
      </trkpt>
      <trkpt lat="45.07408" lon="5.53982">
        <ele>955</ele>
        <time>2010-01-01T00:44:11Z</time>
      </trkpt>
      <trkpt lat="45.07397" lon="5.5398">
        <ele>955</ele>
        <time>2010-01-01T00:44:16Z</time>
      </trkpt>
      <trkpt lat="45.07387" lon="5.53984">
        <ele>955</ele>
        <time>2010-01-01T00:44:20Z</time>
      </trkpt>
      <trkpt lat="45.07376" lon="5.5399">
        <ele>955</ele>
        <time>2010-01-01T00:44:24Z</time>
      </trkpt>
      <trkpt lat="45.07367" lon="5.53999">
        <ele>955</ele>
        <time>2010-01-01T00:44:29Z</time>
      </trkpt>
      <trkpt lat="45.07358" lon="5.54004">
        <ele>955</ele>
        <time>2010-01-01T00:44:33Z</time>
      </trkpt>
      <trkpt lat="45.07349" lon="5.5401">
        <ele>955</ele>
        <time>2010-01-01T00:44:37Z</time>
      </trkpt>
      <trkpt lat="45.07341" lon="5.54016">
        <ele>955</ele>
        <time>2010-01-01T00:44:40Z</time>
      </trkpt>
      <trkpt lat="45.07316" lon="5.5406">
        <ele>962</ele>
        <time>2010-01-01T00:44:56Z</time>
      </trkpt>
      <trkpt lat="45.07294" lon="5.54001">
        <ele>964</ele>
        <time>2010-01-01T00:45:15Z</time>
      </trkpt>
      <trkpt lat="45.07314" lon="5.53923">
        <ele>955</ele>
        <time>2010-01-01T00:45:39Z</time>
      </trkpt>
      <trkpt lat="45.07314" lon="5.53893">
        <ele>956</ele>
        <time>2010-01-01T00:45:47Z</time>
      </trkpt>
      <trkpt lat="45.07311" lon="5.53879">
        <ele>957</ele>
        <time>2010-01-01T00:45:51Z</time>
      </trkpt>
      <trkpt lat="45.07306" lon="5.53865">
        <ele>959</ele>
        <time>2010-01-01T00:45:55Z</time>
      </trkpt>
      <trkpt lat="45.07303" lon="5.53852">
        <ele>960</ele>
        <time>2010-01-01T00:45:59Z</time>
      </trkpt>
      <trkpt lat="45.07299" lon="5.53838">
        <ele>961</ele>
        <time>2010-01-01T00:46:04Z</time>
      </trkpt>
      <trkpt lat="45.07299" lon="5.53825">
        <ele>964</ele>
        <time>2010-01-01T00:46:07Z</time>
      </trkpt>
      <trkpt lat="45.07299" lon="5.53812">
        <ele>968</ele>
        <time>2010-01-01T00:46:11Z</time>
      </trkpt>
      <trkpt lat="45.073" lon="5.53796">
        <ele>973</ele>
        <time>2010-01-01T00:46:16Z</time>
      </trkpt>
      <trkpt lat="45.07301" lon="5.53781">
        <ele>978</ele>
        <time>2010-01-01T00:46:20Z</time>
      </trkpt>
      <trkpt lat="45.07297" lon="5.53769">
        <ele>982</ele>
        <time>2010-01-01T00:46:23Z</time>
      </trkpt>
      <trkpt lat="45.07291" lon="5.53758">
        <ele>986</ele>
        <time>2010-01-01T00:46:27Z</time>
      </trkpt>
      <trkpt lat="45.07284" lon="5.53749">
        <ele>990</ele>
        <time>2010-01-01T00:46:31Z</time>
      </trkpt>
      <trkpt lat="45.07272" lon="5.53726">
        <ele>995</ele>
        <time>2010-01-01T00:46:39Z</time>
      </trkpt>
      <trkpt lat="45.0727" lon="5.53713">
        <ele>998</ele>
        <time>2010-01-01T00:46:43Z</time>
      </trkpt>
      <trkpt lat="45.07268" lon="5.53701">
        <ele>1001</ele>
        <time>2010-01-01T00:46:47Z</time>
      </trkpt>
      <trkpt lat="45.07268" lon="5.53687">
        <ele>1004</ele>
        <time>2010-01-01T00:46:51Z</time>
      </trkpt>
      <trkpt lat="45.07265" lon="5.53674">
        <ele>1006</ele>
        <time>2010-01-01T00:46:54Z</time>
      </trkpt>
      <trkpt lat="45.07263" lon="5.5366">
        <ele>1008</ele>
        <time>2010-01-01T00:46:58Z</time>
      </trkpt>
      <trkpt lat="45.07261" lon="5.53645">
        <ele>1008</ele>
        <time>2010-01-01T00:47:03Z</time>
      </trkpt>
      <trkpt lat="45.07258" lon="5.53633">
        <ele>1008</ele>
        <time>2010-01-01T00:47:06Z</time>
      </trkpt>
      <trkpt lat="45.07254" lon="5.53618">
        <ele>1008</ele>
        <time>2010-01-01T00:47:11Z</time>
      </trkpt>
      <trkpt lat="45.07252" lon="5.53605">
        <ele>1008</ele>
        <time>2010-01-01T00:47:15Z</time>
      </trkpt>
      <trkpt lat="45.07251" lon="5.53577">
        <ele>1008</ele>
        <time>2010-01-01T00:47:23Z</time>
      </trkpt>
      <trkpt lat="45.0725" lon="5.53563">
        <ele>1008</ele>
        <time>2010-01-01T00:47:26Z</time>
      </trkpt>
      <trkpt lat="45.0725" lon="5.53549">
        <ele>1008</ele>
        <time>2010-01-01T00:47:30Z</time>
      </trkpt>
      <trkpt lat="45.07249" lon="5.53536">
        <ele>1008</ele>
        <time>2010-01-01T00:47:34Z</time>
      </trkpt>
      <trkpt lat="45.07251" lon="5.53522">
        <ele>1007</ele>
        <time>2010-01-01T00:47:38Z</time>
      </trkpt>
      <trkpt lat="45.07257" lon="5.53513">
        <ele>1008</ele>
        <time>2010-01-01T00:47:42Z</time>
      </trkpt>
      <trkpt lat="45.07263" lon="5.53503">
        <ele>1008</ele>
        <time>2010-01-01T00:47:45Z</time>
      </trkpt>
      <trkpt lat="45.07277" lon="5.53484">
        <ele>1012</ele>
        <time>2010-01-01T00:47:53Z</time>
      </trkpt>
      <trkpt lat="45.07283" lon="5.53474">
        <ele>1013</ele>
        <time>2010-01-01T00:47:57Z</time>
      </trkpt>
      <trkpt lat="45.07287" lon="5.53462">
        <ele>1015</ele>
        <time>2010-01-01T00:48:01Z</time>
      </trkpt>
      <trkpt lat="45.0729" lon="5.5345">
        <ele>1017</ele>
        <time>2010-01-01T00:48:04Z</time>
      </trkpt>
      <trkpt lat="45.07292" lon="5.53437">
        <ele>1019</ele>
        <time>2010-01-01T00:48:08Z</time>
      </trkpt>
      <trkpt lat="45.07296" lon="5.53412">
        <ele>1023</ele>
        <time>2010-01-01T00:48:15Z</time>
      </trkpt>
      <trkpt lat="45.07299" lon="5.534">
        <ele>1025</ele>
        <time>2010-01-01T00:48:19Z</time>
      </trkpt>
      <trkpt lat="45.07303" lon="5.53387">
        <ele>1028</ele>
        <time>2010-01-01T00:48:23Z</time>
      </trkpt>
      <trkpt lat="45.07306" lon="5.53374">
        <ele>1030</ele>
        <time>2010-01-01T00:48:27Z</time>
      </trkpt>
      <trkpt lat="45.07299" lon="5.53365">
        <ele>1032</ele>
        <time>2010-01-01T00:48:30Z</time>
      </trkpt>
      <trkpt lat="45.0729" lon="5.53363">
        <ele>1031</ele>
        <time>2010-01-01T00:48:34Z</time>
      </trkpt>
      <trkpt lat="45.07272" lon="5.53361">
        <ele>1030</ele>
        <time>2010-01-01T00:48:42Z</time>
      </trkpt>
      <trkpt lat="45.07262" lon="5.53359">
        <ele>1029</ele>
        <time>2010-01-01T00:48:46Z</time>
      </trkpt>
      <trkpt lat="45.07252" lon="5.53359">
        <ele>1028</ele>
        <time>2010-01-01T00:48:49Z</time>
      </trkpt>
      <trkpt lat="45.07245" lon="5.53351">
        <ele>1029</ele>
        <time>2010-01-01T00:48:53Z</time>
      </trkpt>
      <trkpt lat="45.07235" lon="5.53351">
        <ele>1029</ele>
        <time>2010-01-01T00:48:57Z</time>
      </trkpt>
      <trkpt lat="45.07225" lon="5.53351">
        <ele>1029</ele>
        <time>2010-01-01T00:49:01Z</time>
      </trkpt>
      <trkpt lat="45.07216" lon="5.53344">
        <ele>1030</ele>
        <time>2010-01-01T00:49:05Z</time>
      </trkpt>
      <trkpt lat="45.07209" lon="5.5332">
        <ele>1035</ele>
        <time>2010-01-01T00:49:12Z</time>
      </trkpt>
      <trkpt lat="45.07201" lon="5.53311">
        <ele>1037</ele>
        <time>2010-01-01T00:49:16Z</time>
      </trkpt>
      <trkpt lat="45.07192" lon="5.53306">
        <ele>1038</ele>
        <time>2010-01-01T00:49:20Z</time>
      </trkpt>
      <trkpt lat="45.07182" lon="5.53307">
        <ele>1038</ele>
        <time>2010-01-01T00:49:24Z</time>
      </trkpt>
      <trkpt lat="45.07173" lon="5.53301">
        <ele>1039</ele>
        <time>2010-01-01T00:49:28Z</time>
      </trkpt>
      <trkpt lat="45.0716" lon="5.53283">
        <ele>1043</ele>
        <time>2010-01-01T00:49:36Z</time>
      </trkpt>
      <trkpt lat="45.07157" lon="5.5327">
        <ele>1045</ele>
        <time>2010-01-01T00:49:39Z</time>
      </trkpt>
      <trkpt lat="45.0715" lon="5.53261">
        <ele>1047</ele>
        <time>2010-01-01T00:49:43Z</time>
      </trkpt>
      <trkpt lat="45.07145" lon="5.53249">
        <ele>1050</ele>
        <time>2010-01-01T00:49:47Z</time>
      </trkpt>
      <trkpt lat="45.0714" lon="5.53237">
        <ele>1052</ele>
        <time>2010-01-01T00:49:51Z</time>
      </trkpt>
      <trkpt lat="45.07137" lon="5.53225">
        <ele>1055</ele>
        <time>2010-01-01T00:49:55Z</time>
      </trkpt>
      <trkpt lat="45.07132" lon="5.53213">
        <ele>1057</ele>
        <time>2010-01-01T00:49:58Z</time>
      </trkpt>
      <trkpt lat="45.07065" lon="5.53012">
        <ele>1089</ele>
        <time>2010-01-01T00:51:01Z</time>
      </trkpt>
      <trkpt lat="45.07057" lon="5.53003">
        <ele>1090</ele>
        <time>2010-01-01T00:51:05Z</time>
      </trkpt>
      <trkpt lat="45.07053" lon="5.52991">
        <ele>1092</ele>
        <time>2010-01-01T00:51:09Z</time>
      </trkpt>
      <trkpt lat="45.0705" lon="5.52979">
        <ele>1094</ele>
        <time>2010-01-01T00:51:13Z</time>
      </trkpt>
      <trkpt lat="45.07046" lon="5.52966">
        <ele>1096</ele>
        <time>2010-01-01T00:51:17Z</time>
      </trkpt>
      <trkpt lat="45.07042" lon="5.52954">
        <ele>1097</ele>
        <time>2010-01-01T00:51:20Z</time>
      </trkpt>
      <trkpt lat="45.07038" lon="5.52942">
        <ele>1099</ele>
        <time>2010-01-01T00:51:24Z</time>
      </trkpt>
      <trkpt lat="45.07028" lon="5.52921">
        <ele>1102</ele>
        <time>2010-01-01T00:51:32Z</time>
      </trkpt>
      <trkpt lat="45.07021" lon="5.5291">
        <ele>1103</ele>
        <time>2010-01-01T00:51:36Z</time>
      </trkpt>
      <trkpt lat="45.07016" lon="5.52899">
        <ele>1104</ele>
        <time>2010-01-01T00:51:39Z</time>
      </trkpt>
      <trkpt lat="45.07015" lon="5.52886">
        <ele>1104</ele>
        <time>2010-01-01T00:51:43Z</time>
      </trkpt>
      <trkpt lat="45.07003" lon="5.52899">
        <ele>1103</ele>
        <time>2010-01-01T00:51:49Z</time>
      </trkpt>
      <trkpt lat="45.06994" lon="5.52898">
        <ele>1103</ele>
        <time>2010-01-01T00:51:53Z</time>
      </trkpt>
      <trkpt lat="45.06985" lon="5.52898">
        <ele>1103</ele>
        <time>2010-01-01T00:51:56Z</time>
      </trkpt>
      <trkpt lat="45.06976" lon="5.52896">
        <ele>1103</ele>
        <time>2010-01-01T00:52:00Z</time>
      </trkpt>
      <trkpt lat="45.06955" lon="5.52892">
        <ele>1103</ele>
        <time>2010-01-01T00:52:08Z</time>
      </trkpt>
      <trkpt lat="45.06946" lon="5.52886">
        <ele>1104</ele>
        <time>2010-01-01T00:52:13Z</time>
      </trkpt>
      <trkpt lat="45.06936" lon="5.52882">
        <ele>1104</ele>
        <time>2010-01-01T00:52:16Z</time>
      </trkpt>
      <trkpt lat="45.06926" lon="5.52878">
        <ele>1105</ele>
        <time>2010-01-01T00:52:21Z</time>
      </trkpt>
      <trkpt lat="45.06916" lon="5.52873">
        <ele>1106</ele>
        <time>2010-01-01T00:52:25Z</time>
      </trkpt>
      <trkpt lat="45.06908" lon="5.52866">
        <ele>1107</ele>
        <time>2010-01-01T00:52:29Z</time>
      </trkpt>
      <trkpt lat="45.06897" lon="5.52863">
        <ele>1108</ele>
        <time>2010-01-01T00:52:33Z</time>
      </trkpt>
      <trkpt lat="45.06891" lon="5.52852">
        <ele>1110</ele>
        <time>2010-01-01T00:52:37Z</time>
      </trkpt>
      <trkpt lat="45.06888" lon="5.52839">
        <ele>1111</ele>
        <time>2010-01-01T00:52:41Z</time>
      </trkpt>
      <trkpt lat="45.06889" lon="5.52826">
        <ele>1112</ele>
        <time>2010-01-01T00:52:45Z</time>
      </trkpt>
      <trkpt lat="45.06882" lon="5.52799">
        <ele>1112</ele>
        <time>2010-01-01T00:52:53Z</time>
      </trkpt>
      <trkpt lat="45.06878" lon="5.52787">
        <ele>1113</ele>
        <time>2010-01-01T00:52:56Z</time>
      </trkpt>
      <trkpt lat="45.06873" lon="5.52775">
        <ele>1113</ele>
        <time>2010-01-01T00:53:00Z</time>
      </trkpt>
      <trkpt lat="45.0687" lon="5.52764">
        <ele>1113</ele>
        <time>2010-01-01T00:53:04Z</time>
      </trkpt>
      <trkpt lat="45.06859" lon="5.52764">
        <ele>1113</ele>
        <time>2010-01-01T00:53:08Z</time>
      </trkpt>
      <trkpt lat="45.0685" lon="5.52761">
        <ele>1114</ele>
        <time>2010-01-01T00:53:12Z</time>
      </trkpt>
      <trkpt lat="45.0684" lon="5.52759">
        <ele>1114</ele>
        <time>2010-01-01T00:53:16Z</time>
      </trkpt>
      <trkpt lat="45.06829" lon="5.52758">
        <ele>1114</ele>
        <time>2010-01-01T00:53:20Z</time>
      </trkpt>
      <trkpt lat="45.0681" lon="5.52756">
        <ele>1116</ele>
        <time>2010-01-01T00:53:28Z</time>
      </trkpt>
      <trkpt lat="45.06801" lon="5.52755">
        <ele>1116</ele>
        <time>2010-01-01T00:53:32Z</time>
      </trkpt>
      <trkpt lat="45.06791" lon="5.52755">
        <ele>1117</ele>
        <time>2010-01-01T00:53:36Z</time>
      </trkpt>
      <trkpt lat="45.06782" lon="5.52754">
        <ele>1118</ele>
        <time>2010-01-01T00:53:39Z</time>
      </trkpt>
      <trkpt lat="45.06771" lon="5.52755">
        <ele>1118</ele>
        <time>2010-01-01T00:53:44Z</time>
      </trkpt>
      <trkpt lat="45.06761" lon="5.52754">
        <ele>1119</ele>
        <time>2010-01-01T00:53:48Z</time>
      </trkpt>
      <trkpt lat="45.06752" lon="5.52753">
        <ele>1120</ele>
        <time>2010-01-01T00:53:51Z</time>
      </trkpt>
      <trkpt lat="45.06741" lon="5.52754">
        <ele>1121</ele>
        <time>2010-01-01T00:53:56Z</time>
      </trkpt>
      <trkpt lat="45.06732" lon="5.52755">
        <ele>1122</ele>
        <time>2010-01-01T00:53:59Z</time>
      </trkpt>
      <trkpt lat="45.06722" lon="5.52759">
        <ele>1123</ele>
        <time>2010-01-01T00:54:04Z</time>
      </trkpt>
      <trkpt lat="45.06712" lon="5.52762">
        <ele>1124</ele>
        <time>2010-01-01T00:54:08Z</time>
      </trkpt>
      <trkpt lat="45.06703" lon="5.52764">
        <ele>1125</ele>
        <time>2010-01-01T00:54:11Z</time>
      </trkpt>
      <trkpt lat="45.06692" lon="5.52765">
        <ele>1126</ele>
        <time>2010-01-01T00:54:16Z</time>
      </trkpt>
      <trkpt lat="45.06682" lon="5.52767">
        <ele>1127</ele>
        <time>2010-01-01T00:54:20Z</time>
      </trkpt>
      <trkpt lat="45.06663" lon="5.52772">
        <ele>1130</ele>
        <time>2010-01-01T00:54:27Z</time>
      </trkpt>
      <trkpt lat="45.06654" lon="5.52776">
        <ele>1131</ele>
        <time>2010-01-01T00:54:31Z</time>
      </trkpt>
      <trkpt lat="45.06645" lon="5.52777">
        <ele>1132</ele>
        <time>2010-01-01T00:54:35Z</time>
      </trkpt>
      <trkpt lat="45.06635" lon="5.52774">
        <ele>1132</ele>
        <time>2010-01-01T00:54:39Z</time>
      </trkpt>
      <trkpt lat="45.06625" lon="5.52772">
        <ele>1134</ele>
        <time>2010-01-01T00:54:43Z</time>
      </trkpt>
      <trkpt lat="45.06617" lon="5.52766">
        <ele>1134</ele>
        <time>2010-01-01T00:54:47Z</time>
      </trkpt>
      <trkpt lat="45.06609" lon="5.52758">
        <ele>1135</ele>
        <time>2010-01-01T00:54:51Z</time>
      </trkpt>
      <trkpt lat="45.066" lon="5.52753">
        <ele>1136</ele>
        <time>2010-01-01T00:54:55Z</time>
      </trkpt>
      <trkpt lat="45.06589" lon="5.52749">
        <ele>1137</ele>
        <time>2010-01-01T00:54:59Z</time>
      </trkpt>
      <trkpt lat="45.06579" lon="5.52746">
        <ele>1139</ele>
        <time>2010-01-01T00:55:03Z</time>
      </trkpt>
      <trkpt lat="45.06569" lon="5.52745">
        <ele>1140</ele>
        <time>2010-01-01T00:55:07Z</time>
      </trkpt>
      <trkpt lat="45.0655" lon="5.5274">
        <ele>1143</ele>
        <time>2010-01-01T00:55:15Z</time>
      </trkpt>
      <trkpt lat="45.06541" lon="5.52739">
        <ele>1145</ele>
        <time>2010-01-01T00:55:18Z</time>
      </trkpt>
      <trkpt lat="45.06532" lon="5.52736">
        <ele>1146</ele>
        <time>2010-01-01T00:55:22Z</time>
      </trkpt>
      <trkpt lat="45.06522" lon="5.52736">
        <ele>1147</ele>
        <time>2010-01-01T00:55:26Z</time>
      </trkpt>
      <trkpt lat="45.06513" lon="5.52735">
        <ele>1149</ele>
        <time>2010-01-01T00:55:30Z</time>
      </trkpt>
      <trkpt lat="45.06503" lon="5.52733">
        <ele>1150</ele>
        <time>2010-01-01T00:55:34Z</time>
      </trkpt>
      <trkpt lat="45.06494" lon="5.52727">
        <ele>1151</ele>
        <time>2010-01-01T00:55:38Z</time>
      </trkpt>
      <trkpt lat="45.06487" lon="5.52715">
        <ele>1152</ele>
        <time>2010-01-01T00:55:42Z</time>
      </trkpt>
      <trkpt lat="45.0648" lon="5.52703">
        <ele>1153</ele>
        <time>2010-01-01T00:55:46Z</time>
      </trkpt>
      <trkpt lat="45.06473" lon="5.52693">
        <ele>1154</ele>
        <time>2010-01-01T00:55:51Z</time>
      </trkpt>
      <trkpt lat="45.06461" lon="5.5267">
        <ele>1155</ele>
        <time>2010-01-01T00:55:59Z</time>
      </trkpt>
      <trkpt lat="45.06455" lon="5.52659">
        <ele>1155</ele>
        <time>2010-01-01T00:56:03Z</time>
      </trkpt>
      <trkpt lat="45.06449" lon="5.52647">
        <ele>1155</ele>
        <time>2010-01-01T00:56:06Z</time>
      </trkpt>
      <trkpt lat="45.06442" lon="5.52639">
        <ele>1156</ele>
        <time>2010-01-01T00:56:10Z</time>
      </trkpt>
      <trkpt lat="45.06433" lon="5.52631">
        <ele>1157</ele>
        <time>2010-01-01T00:56:14Z</time>
      </trkpt>
      <trkpt lat="45.06424" lon="5.52625">
        <ele>1158</ele>
        <time>2010-01-01T00:56:18Z</time>
      </trkpt>
      <trkpt lat="45.06414" lon="5.52622">
        <ele>1159</ele>
        <time>2010-01-01T00:56:23Z</time>
      </trkpt>
      <trkpt lat="45.06405" lon="5.52621">
        <ele>1159</ele>
        <time>2010-01-01T00:56:26Z</time>
      </trkpt>
      <trkpt lat="45.06396" lon="5.52621">
        <ele>1160</ele>
        <time>2010-01-01T00:56:30Z</time>
      </trkpt>
      <trkpt lat="45.06386" lon="5.52621">
        <ele>1161</ele>
        <time>2010-01-01T00:56:34Z</time>
      </trkpt>
      <trkpt lat="45.06376" lon="5.52621">
        <ele>1162</ele>
        <time>2010-01-01T00:56:38Z</time>
      </trkpt>
      <trkpt lat="45.06366" lon="5.52623">
        <ele>1163</ele>
        <time>2010-01-01T00:56:42Z</time>
      </trkpt>
      <trkpt lat="45.06346" lon="5.52629">
        <ele>1166</ele>
        <time>2010-01-01T00:56:50Z</time>
      </trkpt>
      <trkpt lat="45.06336" lon="5.5263">
        <ele>1167</ele>
        <time>2010-01-01T00:56:54Z</time>
      </trkpt>
      <trkpt lat="45.06326" lon="5.52628">
        <ele>1167</ele>
        <time>2010-01-01T00:56:58Z</time>
      </trkpt>
      <trkpt lat="45.06316" lon="5.52627">
        <ele>1166</ele>
        <time>2010-01-01T00:57:02Z</time>
      </trkpt>
      <trkpt lat="45.06307" lon="5.52627">
        <ele>1166</ele>
        <time>2010-01-01T00:57:06Z</time>
      </trkpt>
      <trkpt lat="45.06298" lon="5.52627">
        <ele>1166</ele>
        <time>2010-01-01T00:57:09Z</time>
      </trkpt>
      <trkpt lat="45.06288" lon="5.52626">
        <ele>1166</ele>
        <time>2010-01-01T00:57:13Z</time>
      </trkpt>
      <trkpt lat="45.06278" lon="5.52623">
        <ele>1166</ele>
        <time>2010-01-01T00:57:17Z</time>
      </trkpt>
      <trkpt lat="45.06268" lon="5.52622">
        <ele>1166</ele>
        <time>2010-01-01T00:57:21Z</time>
      </trkpt>
      <trkpt lat="45.06258" lon="5.52621">
        <ele>1165</ele>
        <time>2010-01-01T00:57:25Z</time>
      </trkpt>
      <trkpt lat="45.06249" lon="5.52619">
        <ele>1165</ele>
        <time>2010-01-01T00:57:29Z</time>
      </trkpt>
      <trkpt lat="45.06239" lon="5.52617">
        <ele>1165</ele>
        <time>2010-01-01T00:57:33Z</time>
      </trkpt>
      <trkpt lat="45.06229" lon="5.52612">
        <ele>1165</ele>
        <time>2010-01-01T00:57:37Z</time>
      </trkpt>
      <trkpt lat="45.0621" lon="5.52597">
        <ele>1163</ele>
        <time>2010-01-01T00:57:46Z</time>
      </trkpt>
      <trkpt lat="45.06203" lon="5.52585">
        <ele>1162</ele>
        <time>2010-01-01T00:57:50Z</time>
      </trkpt>
      <trkpt lat="45.06199" lon="5.52571">
        <ele>1160</ele>
        <time>2010-01-01T00:57:55Z</time>
      </trkpt>
      <trkpt lat="45.06197" lon="5.52555">
        <ele>1157</ele>
        <time>2010-01-01T00:57:59Z</time>
      </trkpt>
      <trkpt lat="45.06195" lon="5.5254">
        <ele>1154</ele>
        <time>2010-01-01T00:58:04Z</time>
      </trkpt>
      <trkpt lat="45.0619" lon="5.52526">
        <ele>1152</ele>
        <time>2010-01-01T00:58:08Z</time>
      </trkpt>
      <trkpt lat="45.06182" lon="5.52515">
        <ele>1151</ele>
        <time>2010-01-01T00:58:12Z</time>
      </trkpt>
      <trkpt lat="45.06174" lon="5.52506">
        <ele>1150</ele>
        <time>2010-01-01T00:58:17Z</time>
      </trkpt>
      <trkpt lat="45.06167" lon="5.52499">
        <ele>1150</ele>
        <time>2010-01-01T00:58:20Z</time>
      </trkpt>
      <trkpt lat="45.06157" lon="5.52493">
        <ele>1149</ele>
        <time>2010-01-01T00:58:25Z</time>
      </trkpt>
      <trkpt lat="45.06146" lon="5.52489">
        <ele>1149</ele>
        <time>2010-01-01T00:58:29Z</time>
      </trkpt>
      <trkpt lat="45.06136" lon="5.5249">
        <ele>1150</ele>
        <time>2010-01-01T00:58:33Z</time>
      </trkpt>
      <trkpt lat="45.06125" lon="5.52487">
        <ele>1150</ele>
        <time>2010-01-01T00:58:37Z</time>
      </trkpt>
      <trkpt lat="45.06107" lon="5.52481">
        <ele>1150</ele>
        <time>2010-01-01T00:58:45Z</time>
      </trkpt>
      <trkpt lat="45.06098" lon="5.52478">
        <ele>1150</ele>
        <time>2010-01-01T00:58:49Z</time>
      </trkpt>
      <trkpt lat="45.06089" lon="5.52475">
        <ele>1150</ele>
        <time>2010-01-01T00:58:52Z</time>
      </trkpt>
      <trkpt lat="45.06078" lon="5.5247">
        <ele>1150</ele>
        <time>2010-01-01T00:58:57Z</time>
      </trkpt>
      <trkpt lat="45.0607" lon="5.52462">
        <ele>1149</ele>
        <time>2010-01-01T00:59:01Z</time>
      </trkpt>
      <trkpt lat="45.06066" lon="5.52451">
        <ele>1148</ele>
        <time>2010-01-01T00:59:04Z</time>
      </trkpt>
      <trkpt lat="45.06063" lon="5.52437">
        <ele>1147</ele>
        <time>2010-01-01T00:59:08Z</time>
      </trkpt>
      <trkpt lat="45.06061" lon="5.5242">
        <ele>1145</ele>
        <time>2010-01-01T00:59:13Z</time>
      </trkpt>
      <trkpt lat="45.06062" lon="5.52406">
        <ele>1143</ele>
        <time>2010-01-01T00:59:17Z</time>
      </trkpt>
      <trkpt lat="45.06065" lon="5.52393">
        <ele>1142</ele>
        <time>2010-01-01T00:59:21Z</time>
      </trkpt>
      <trkpt lat="45.06066" lon="5.52379">
        <ele>1141</ele>
        <time>2010-01-01T00:59:25Z</time>
      </trkpt>
      <trkpt lat="45.06064" lon="5.52365">
        <ele>1140</ele>
        <time>2010-01-01T00:59:29Z</time>
      </trkpt>
      <trkpt lat="45.06061" lon="5.52353">
        <ele>1139</ele>
        <time>2010-01-01T00:59:33Z</time>
      </trkpt>
      <trkpt lat="45.06056" lon="5.52341">
        <ele>1138</ele>
        <time>2010-01-01T00:59:37Z</time>
      </trkpt>
      <trkpt lat="45.06051" lon="5.52328">
        <ele>1138</ele>
        <time>2010-01-01T00:59:41Z</time>
      </trkpt>
      <trkpt lat="45.06042" lon="5.52306">
        <ele>1137</ele>
        <time>2010-01-01T00:59:48Z</time>
      </trkpt>
      <trkpt lat="45.06037" lon="5.52296">
        <ele>1136</ele>
        <time>2010-01-01T00:59:52Z</time>
      </trkpt>
      <trkpt lat="45.06029" lon="5.52288">
        <ele>1136</ele>
        <time>2010-01-01T00:59:55Z</time>
      </trkpt>
      <trkpt lat="45.0602" lon="5.52286">
        <ele>1136</ele>
        <time>2010-01-01T00:59:59Z</time>
      </trkpt>
      <trkpt lat="45.06008" lon="5.52273">
        <ele>1136</ele>
        <time>2010-01-01T01:00:05Z</time>
      </trkpt>
      <trkpt lat="45.05984" lon="5.52236">
        <ele>1134</ele>
        <time>2010-01-01T01:00:19Z</time>
      </trkpt>
      <trkpt lat="45.05949" lon="5.52204">
        <ele>1132</ele>
        <time>2010-01-01T01:00:36Z</time>
      </trkpt>
      <trkpt lat="45.05917" lon="5.52184">
        <ele>1131</ele>
        <time>2010-01-01T01:00:50Z</time>
      </trkpt>
      <trkpt lat="45.05915" lon="5.52183">
        <ele>1131</ele>
        <time>2010-01-01T01:00:51Z</time>
      </trkpt>
      <trkpt lat="45.05908" lon="5.52179">
        <ele>1131</ele>
        <time>2010-01-01T01:00:54Z</time>
      </trkpt>
      <trkpt lat="45.05905" lon="5.52177">
        <ele>1131</ele>
        <time>2010-01-01T01:00:55Z</time>
      </trkpt>
      <trkpt lat="45.05866" lon="5.52152">
        <ele>1130</ele>
        <time>2010-01-01T01:01:12Z</time>
      </trkpt>
      <trkpt lat="45.05835" lon="5.52119">
        <ele>1129</ele>
        <time>2010-01-01T01:01:28Z</time>
      </trkpt>
      <trkpt lat="45.05831" lon="5.5209">
        <ele>1128</ele>
        <time>2010-01-01T01:01:36Z</time>
      </trkpt>
      <trkpt lat="45.05838" lon="5.52082">
        <ele>1128</ele>
        <time>2010-01-01T01:01:40Z</time>
      </trkpt>
      <trkpt lat="45.05849" lon="5.52072">
        <ele>1128</ele>
        <time>2010-01-01T01:01:45Z</time>
      </trkpt>
      <trkpt lat="45.05871" lon="5.52059">
        <ele>1127</ele>
        <time>2010-01-01T01:01:55Z</time>
      </trkpt>
      <trkpt lat="45.05875" lon="5.52055">
        <ele>1127</ele>
        <time>2010-01-01T01:01:57Z</time>
      </trkpt>
      <trkpt lat="45.0588" lon="5.52041">
        <ele>1126</ele>
        <time>2010-01-01T01:02:01Z</time>
      </trkpt>
      <trkpt lat="45.0589" lon="5.52011">
        <ele>1125</ele>
        <time>2010-01-01T01:02:10Z</time>
      </trkpt>
      <trkpt lat="45.05901" lon="5.51977">
        <ele>1123</ele>
        <time>2010-01-01T01:02:21Z</time>
      </trkpt>
      <trkpt lat="45.05911" lon="5.51931">
        <ele>1121</ele>
        <time>2010-01-01T01:02:35Z</time>
      </trkpt>
      <trkpt lat="45.05919" lon="5.51914">
        <ele>1120</ele>
        <time>2010-01-01T01:02:41Z</time>
      </trkpt>
      <trkpt lat="45.05936" lon="5.51835">
        <ele>1113</ele>
        <time>2010-01-01T01:03:04Z</time>
      </trkpt>
      <trkpt lat="45.05941" lon="5.5177">
        <ele>1109</ele>
        <time>2010-01-01T01:03:22Z</time>
      </trkpt>
      <trkpt lat="45.05942" lon="5.51759">
        <ele>1108</ele>
        <time>2010-01-01T01:03:26Z</time>
      </trkpt>
      <trkpt lat="45.05951" lon="5.51737">
        <ele>1106</ele>
        <time>2010-01-01T01:03:33Z</time>
      </trkpt>
      <trkpt lat="45.05954" lon="5.5172">
        <ele>1105</ele>
        <time>2010-01-01T01:03:38Z</time>
      </trkpt>
      <trkpt lat="45.0594" lon="5.51669">
        <ele>1104</ele>
        <time>2010-01-01T01:03:53Z</time>
      </trkpt>
      <trkpt lat="45.05938" lon="5.51659">
        <ele>1104</ele>
        <time>2010-01-01T01:03:56Z</time>
      </trkpt>
      <trkpt lat="45.05929" lon="5.51594">
        <ele>1103</ele>
        <time>2010-01-01T01:04:15Z</time>
      </trkpt>
      <trkpt lat="45.05928" lon="5.51554">
        <ele>1104</ele>
        <time>2010-01-01T01:04:26Z</time>
      </trkpt>
      <trkpt lat="45.05927" lon="5.51524">
        <ele>1105</ele>
        <time>2010-01-01T01:04:35Z</time>
      </trkpt>
      <trkpt lat="45.05919" lon="5.51487">
        <ele>1107</ele>
        <time>2010-01-01T01:04:46Z</time>
      </trkpt>
      <trkpt lat="45.05918" lon="5.5147">
        <ele>1108</ele>
        <time>2010-01-01T01:04:50Z</time>
      </trkpt>
      <trkpt lat="45.05912" lon="5.51423">
        <ele>1111</ele>
        <time>2010-01-01T01:05:04Z</time>
      </trkpt>
      <trkpt lat="45.05908" lon="5.51416">
        <ele>1112</ele>
        <time>2010-01-01T01:05:06Z</time>
      </trkpt>
      <trkpt lat="45.05898" lon="5.51365">
        <ele>1114</ele>
        <time>2010-01-01T01:05:21Z</time>
      </trkpt>
      <trkpt lat="45.05908" lon="5.51318">
        <ele>1115</ele>
        <time>2010-01-01T01:05:35Z</time>
      </trkpt>
      <trkpt lat="45.05933" lon="5.51289">
        <ele>1117</ele>
        <time>2010-01-01T01:05:48Z</time>
      </trkpt>
      <trkpt lat="45.05943" lon="5.51273">
        <ele>1118</ele>
        <time>2010-01-01T01:05:54Z</time>
      </trkpt>
      <trkpt lat="45.05943" lon="5.51272">
        <ele>1118</ele>
        <time>2010-01-01T01:05:54Z</time>
      </trkpt>
      <trkpt lat="45.05943" lon="5.51271">
        <ele>1118</ele>
        <time>2010-01-01T01:05:55Z</time>
      </trkpt>
      <trkpt lat="45.05944" lon="5.5127">
        <ele>1118</ele>
        <time>2010-01-01T01:05:55Z</time>
      </trkpt>
      <trkpt lat="45.05947" lon="5.51266">
        <ele>1118</ele>
        <time>2010-01-01T01:05:57Z</time>
      </trkpt>
      <trkpt lat="45.05948" lon="5.51265">
        <ele>1118</ele>
        <time>2010-01-01T01:05:57Z</time>
      </trkpt>
      <trkpt lat="45.05954" lon="5.51256">
        <ele>1119</ele>
        <time>2010-01-01T01:06:01Z</time>
      </trkpt>
      <trkpt lat="45.05962" lon="5.51238">
        <ele>1121</ele>
        <time>2010-01-01T01:06:07Z</time>
      </trkpt>
      <trkpt lat="45.05969" lon="5.51215">
        <ele>1123</ele>
        <time>2010-01-01T01:06:14Z</time>
      </trkpt>
      <trkpt lat="45.05994" lon="5.51183">
        <ele>1125</ele>
        <time>2010-01-01T01:06:27Z</time>
      </trkpt>
      <trkpt lat="45.06008" lon="5.51139">
        <ele>1128</ele>
        <time>2010-01-01T01:06:41Z</time>
      </trkpt>
      <trkpt lat="45.06031" lon="5.51081">
        <ele>1132</ele>
        <time>2010-01-01T01:07:00Z</time>
      </trkpt>
      <trkpt lat="45.06047" lon="5.51057">
        <ele>1134</ele>
        <time>2010-01-01T01:07:09Z</time>
      </trkpt>
      <trkpt lat="45.06066" lon="5.5101">
        <ele>1135</ele>
        <time>2010-01-01T01:07:24Z</time>
      </trkpt>
      <trkpt lat="45.06073" lon="5.50998">
        <ele>1135</ele>
        <time>2010-01-01T01:07:29Z</time>
      </trkpt>
      <trkpt lat="45.06089" lon="5.50978">
        <ele>1137</ele>
        <time>2010-01-01T01:07:37Z</time>
      </trkpt>
      <trkpt lat="45.06113" lon="5.50957">
        <ele>1140</ele>
        <time>2010-01-01T01:07:49Z</time>
      </trkpt>
      <trkpt lat="45.06126" lon="5.50953">
        <ele>1140</ele>
        <time>2010-01-01T01:07:54Z</time>
      </trkpt>
      <trkpt lat="45.06139" lon="5.50936">
        <ele>1142</ele>
        <time>2010-01-01T01:08:01Z</time>
      </trkpt>
      <trkpt lat="45.06145" lon="5.50923">
        <ele>1143</ele>
        <time>2010-01-01T01:08:05Z</time>
      </trkpt>
      <trkpt lat="45.06146" lon="5.50922">
        <ele>1143</ele>
        <time>2010-01-01T01:08:06Z</time>
      </trkpt>
      <trkpt lat="45.06147" lon="5.50903">
        <ele>1146</ele>
        <time>2010-01-01T01:08:11Z</time>
      </trkpt>
      <trkpt lat="45.06143" lon="5.50886">
        <ele>1148</ele>
        <time>2010-01-01T01:08:16Z</time>
      </trkpt>
      <trkpt lat="45.06129" lon="5.5086">
        <ele>1153</ele>
        <time>2010-01-01T01:08:26Z</time>
      </trkpt>
      <trkpt lat="45.06118" lon="5.50836">
        <ele>1158</ele>
        <time>2010-01-01T01:08:34Z</time>
      </trkpt>
      <trkpt lat="45.06118" lon="5.50821">
        <ele>1161</ele>
        <time>2010-01-01T01:08:38Z</time>
      </trkpt>
      <trkpt lat="45.06118" lon="5.50819">
        <ele>1161</ele>
        <time>2010-01-01T01:08:38Z</time>
      </trkpt>
      <trkpt lat="45.06121" lon="5.50809">
        <ele>1163</ele>
        <time>2010-01-01T01:08:41Z</time>
      </trkpt>
      <trkpt lat="45.0613" lon="5.50792">
        <ele>1166</ele>
        <time>2010-01-01T01:08:47Z</time>
      </trkpt>
      <trkpt lat="45.06135" lon="5.50784">
        <ele>1168</ele>
        <time>2010-01-01T01:08:51Z</time>
      </trkpt>
      <trkpt lat="45.06173" lon="5.50768">
        <ele>1167</ele>
        <time>2010-01-01T01:09:06Z</time>
      </trkpt>
      <trkpt lat="45.06195" lon="5.50757">
        <ele>1169</ele>
        <time>2010-01-01T01:09:16Z</time>
      </trkpt>
      <trkpt lat="45.06174" lon="5.50739">
        <ele>1173</ele>
        <time>2010-01-01T01:09:26Z</time>
      </trkpt>
      <trkpt lat="45.06155" lon="5.5073">
        <ele>1177</ele>
        <time>2010-01-01T01:09:34Z</time>
      </trkpt>
      <trkpt lat="45.06149" lon="5.50727">
        <ele>1178</ele>
        <time>2010-01-01T01:09:36Z</time>
      </trkpt>
      <trkpt lat="45.06132" lon="5.50724">
        <ele>1182</ele>
        <time>2010-01-01T01:09:43Z</time>
      </trkpt>
      <trkpt lat="45.0613" lon="5.50722">
        <ele>1182</ele>
        <time>2010-01-01T01:09:44Z</time>
      </trkpt>
      <trkpt lat="45.06137" lon="5.50719">
        <ele>1182</ele>
        <time>2010-01-01T01:09:48Z</time>
      </trkpt>
      <trkpt lat="45.06129" lon="5.50701">
        <ele>1187</ele>
        <time>2010-01-01T01:09:54Z</time>
      </trkpt>
      <trkpt lat="45.06127" lon="5.50692">
        <ele>1190</ele>
        <time>2010-01-01T01:09:56Z</time>
      </trkpt>
      <trkpt lat="45.06133" lon="5.50676">
        <ele>1192</ele>
        <time>2010-01-01T01:10:01Z</time>
      </trkpt>
      <trkpt lat="45.06138" lon="5.50669">
        <ele>1193</ele>
        <time>2010-01-01T01:10:04Z</time>
      </trkpt>
      <trkpt lat="45.06137" lon="5.50668">
        <ele>1193</ele>
        <time>2010-01-01T01:10:05Z</time>
      </trkpt>
      <trkpt lat="45.0613" lon="5.50647">
        <ele>1198</ele>
        <time>2010-01-01T01:10:11Z</time>
      </trkpt>
      <trkpt lat="45.0613" lon="5.50645">
        <ele>1198</ele>
        <time>2010-01-01T01:10:12Z</time>
      </trkpt>
      <trkpt lat="45.0613" lon="5.50644">
        <ele>1198</ele>
        <time>2010-01-01T01:10:12Z</time>
      </trkpt>
      <trkpt lat="45.0613" lon="5.50642">
        <ele>1198</ele>
        <time>2010-01-01T01:10:13Z</time>
      </trkpt>
      <trkpt lat="45.06127" lon="5.50643">
        <ele>1199</ele>
        <time>2010-01-01T01:10:14Z</time>
      </trkpt>
      <trkpt lat="45.06131" lon="5.50646">
        <ele>1198</ele>
        <time>2010-01-01T01:10:16Z</time>
      </trkpt>
      <trkpt lat="45.06136" lon="5.50649">
        <ele>1196</ele>
        <time>2010-01-01T01:10:18Z</time>
      </trkpt>
      <trkpt lat="45.06152" lon="5.50653">
        <ele>1192</ele>
        <time>2010-01-01T01:10:24Z</time>
      </trkpt>
      <trkpt lat="45.06181" lon="5.50643">
        <ele>1189</ele>
        <time>2010-01-01T01:10:36Z</time>
      </trkpt>
      <trkpt lat="45.06192" lon="5.50626">
        <ele>1190</ele>
        <time>2010-01-01T01:10:43Z</time>
      </trkpt>
      <trkpt lat="45.06198" lon="5.50614">
        <ele>1191</ele>
        <time>2010-01-01T01:10:47Z</time>
      </trkpt>
      <trkpt lat="45.06205" lon="5.50601">
        <ele>1191</ele>
        <time>2010-01-01T01:10:52Z</time>
      </trkpt>
      <trkpt lat="45.06212" lon="5.50576">
        <ele>1193</ele>
        <time>2010-01-01T01:10:59Z</time>
      </trkpt>
      <trkpt lat="45.06233" lon="5.50555">
        <ele>1193</ele>
        <time>2010-01-01T01:11:10Z</time>
      </trkpt>
      <trkpt lat="45.06257" lon="5.50543">
        <ele>1191</ele>
        <time>2010-01-01T01:11:20Z</time>
      </trkpt>
      <trkpt lat="45.06306" lon="5.50508">
        <ele>1186</ele>
        <time>2010-01-01T01:11:42Z</time>
      </trkpt>
      <trkpt lat="45.06309" lon="5.50505">
        <ele>1186</ele>
        <time>2010-01-01T01:11:43Z</time>
      </trkpt>
      <trkpt lat="45.06347" lon="5.50458">
        <ele>1181</ele>
        <time>2010-01-01T01:12:03Z</time>
      </trkpt>
      <trkpt lat="45.06361" lon="5.50437">
        <ele>1179</ele>
        <time>2010-01-01T01:12:12Z</time>
      </trkpt>
      <trkpt lat="45.06381" lon="5.50401">
        <ele>1175</ele>
        <time>2010-01-01T01:12:25Z</time>
      </trkpt>
      <trkpt lat="45.06384" lon="5.504">
        <ele>1175</ele>
        <time>2010-01-01T01:12:26Z</time>
      </trkpt>
      <trkpt lat="45.06405" lon="5.50363">
        <ele>1172</ele>
        <time>2010-01-01T01:12:39Z</time>
      </trkpt>
      <trkpt lat="45.06406" lon="5.50359">
        <ele>1172</ele>
        <time>2010-01-01T01:12:40Z</time>
      </trkpt>
      <trkpt lat="45.06434" lon="5.50303">
        <ele>1171</ele>
        <time>2010-01-01T01:13:00Z</time>
      </trkpt>
      <trkpt lat="45.0645" lon="5.5026">
        <ele>1173</ele>
        <time>2010-01-01T01:13:13Z</time>
      </trkpt>
      <trkpt lat="45.06453" lon="5.5025">
        <ele>1173</ele>
        <time>2010-01-01T01:13:16Z</time>
      </trkpt>
      <trkpt lat="45.06466" lon="5.50231">
        <ele>1173</ele>
        <time>2010-01-01T01:13:24Z</time>
      </trkpt>
      <trkpt lat="45.06473" lon="5.5017">
        <ele>1182</ele>
        <time>2010-01-01T01:13:42Z</time>
      </trkpt>
      <trkpt lat="45.06474" lon="5.50156">
        <ele>1185</ele>
        <time>2010-01-01T01:13:46Z</time>
      </trkpt>
      <trkpt lat="45.06485" lon="5.50127">
        <ele>1189</ele>
        <time>2010-01-01T01:13:55Z</time>
      </trkpt>
      <trkpt lat="45.0651" lon="5.50097">
        <ele>1191</ele>
        <time>2010-01-01T01:14:08Z</time>
      </trkpt>
      <trkpt lat="45.06539" lon="5.50076">
        <ele>1191</ele>
        <time>2010-01-01T01:14:21Z</time>
      </trkpt>
      <trkpt lat="45.06557" lon="5.50059">
        <ele>1192</ele>
        <time>2010-01-01T01:14:29Z</time>
      </trkpt>
      <trkpt lat="45.06559" lon="5.50055">
        <ele>1192</ele>
        <time>2010-01-01T01:14:31Z</time>
      </trkpt>
      <trkpt lat="45.06562" lon="5.50049">
        <ele>1193</ele>
        <time>2010-01-01T01:14:33Z</time>
      </trkpt>
      <trkpt lat="45.06578" lon="5.50034">
        <ele>1193</ele>
        <time>2010-01-01T01:14:41Z</time>
      </trkpt>
      <trkpt lat="45.06579" lon="5.50033">
        <ele>1193</ele>
        <time>2010-01-01T01:14:41Z</time>
      </trkpt>
      <trkpt lat="45.06581" lon="5.50029">
        <ele>1194</ele>
        <time>2010-01-01T01:14:43Z</time>
      </trkpt>
      <trkpt lat="45.06587" lon="5.50022">
        <ele>1194</ele>
        <time>2010-01-01T01:14:46Z</time>
      </trkpt>
      <trkpt lat="45.06612" lon="5.49991">
        <ele>1191</ele>
        <time>2010-01-01T01:14:59Z</time>
      </trkpt>
      <trkpt lat="45.06614" lon="5.49986">
        <ele>1191</ele>
        <time>2010-01-01T01:15:01Z</time>
      </trkpt>
      <trkpt lat="45.0662" lon="5.49975">
        <ele>1190</ele>
        <time>2010-01-01T01:15:05Z</time>
      </trkpt>
      <trkpt lat="45.06632" lon="5.49974">
        <ele>1187</ele>
        <time>2010-01-01T01:15:09Z</time>
      </trkpt>
      <trkpt lat="45.06633" lon="5.49974">
        <ele>1186</ele>
        <time>2010-01-01T01:15:10Z</time>
      </trkpt>
      <trkpt lat="45.06644" lon="5.49972">
        <ele>1183</ele>
        <time>2010-01-01T01:15:14Z</time>
      </trkpt>
      <trkpt lat="45.0665" lon="5.49972">
        <ele>1181</ele>
        <time>2010-01-01T01:15:17Z</time>
      </trkpt>
      <trkpt lat="45.06647" lon="5.49972">
        <ele>1182</ele>
        <time>2010-01-01T01:15:18Z</time>
      </trkpt>
      <trkpt lat="45.06646" lon="5.49969">
        <ele>1183</ele>
        <time>2010-01-01T01:15:19Z</time>
      </trkpt>
      <trkpt lat="45.06645" lon="5.49969">
        <ele>1183</ele>
        <time>2010-01-01T01:15:19Z</time>
      </trkpt>
      <trkpt lat="45.06644" lon="5.49968">
        <ele>1183</ele>
        <time>2010-01-01T01:15:20Z</time>
      </trkpt>
      <trkpt lat="45.06623" lon="5.49952">
        <ele>1192</ele>
        <time>2010-01-01T01:15:29Z</time>
      </trkpt>
      <trkpt lat="45.06601" lon="5.49905">
        <ele>1203</ele>
        <time>2010-01-01T01:15:45Z</time>
      </trkpt>
      <trkpt lat="45.06597" lon="5.49863">
        <ele>1202</ele>
        <time>2010-01-01T01:15:57Z</time>
      </trkpt>
      <trkpt lat="45.06622" lon="5.4983">
        <ele>1189</ele>
        <time>2010-01-01T01:16:11Z</time>
      </trkpt>
      <trkpt lat="45.06622" lon="5.49824">
        <ele>1187</ele>
        <time>2010-01-01T01:16:12Z</time>
      </trkpt>
      <trkpt lat="45.06611" lon="5.49784">
        <ele>1179</ele>
        <time>2010-01-01T01:16:25Z</time>
      </trkpt>
      <trkpt lat="45.06593" lon="5.49711">
        <ele>1158</ele>
        <time>2010-01-01T01:16:46Z</time>
      </trkpt>
      <trkpt lat="45.06567" lon="5.49665">
        <ele>1149</ele>
        <time>2010-01-01T01:17:03Z</time>
      </trkpt>
      <trkpt lat="45.06558" lon="5.4966">
        <ele>1151</ele>
        <time>2010-01-01T01:17:07Z</time>
      </trkpt>
      <trkpt lat="45.06553" lon="5.49659">
        <ele>1154</ele>
        <time>2010-01-01T01:17:09Z</time>
      </trkpt>
      <trkpt lat="45.06521" lon="5.49648">
        <ele>1165</ele>
        <time>2010-01-01T01:17:22Z</time>
      </trkpt>
      <trkpt lat="45.06491" lon="5.49612">
        <ele>1161</ele>
        <time>2010-01-01T01:17:38Z</time>
      </trkpt>
      <trkpt lat="45.06461" lon="5.49558">
        <ele>1146</ele>
        <time>2010-01-01T01:17:57Z</time>
      </trkpt>
      <trkpt lat="45.06436" lon="5.49495">
        <ele>1122</ele>
        <time>2010-01-01T01:18:18Z</time>
      </trkpt>
      <trkpt lat="45.06376" lon="5.49461">
        <ele>1147</ele>
        <time>2010-01-01T01:18:44Z</time>
      </trkpt>
      <trkpt lat="45.06376" lon="5.49461">
        <ele>1147</ele>
        <time>2010-01-01T01:18:44Z</time>
      </trkpt>
      <trkpt lat="45.06375" lon="5.49446">
        <ele>1143</ele>
        <time>2010-01-01T01:18:48Z</time>
      </trkpt>
      <trkpt lat="45.06377" lon="5.49442">
        <ele>1141</ele>
        <time>2010-01-01T01:18:49Z</time>
      </trkpt>
      <trkpt lat="45.06364" lon="5.49412">
        <ele>1143</ele>
        <time>2010-01-01T01:18:59Z</time>
      </trkpt>
      <trkpt lat="45.06356" lon="5.49391">
        <ele>1153</ele>
        <time>2010-01-01T01:19:06Z</time>
      </trkpt>
      <trkpt lat="45.06357" lon="5.49363">
        <ele>1160</ele>
        <time>2010-01-01T01:19:14Z</time>
      </trkpt>
      <trkpt lat="45.06359" lon="5.49345">
        <ele>1164</ele>
        <time>2010-01-01T01:19:19Z</time>
      </trkpt>
      <trkpt lat="45.06359" lon="5.49341">
        <ele>1165</ele>
        <time>2010-01-01T01:19:20Z</time>
      </trkpt>
      <trkpt lat="45.06361" lon="5.49337">
        <ele>1164</ele>
        <time>2010-01-01T01:19:22Z</time>
      </trkpt>
      <trkpt lat="45.06362" lon="5.49317">
        <ele>1171</ele>
        <time>2010-01-01T01:19:28Z</time>
      </trkpt>
      <trkpt lat="45.06359" lon="5.49306">
        <ele>1176</ele>
        <time>2010-01-01T01:19:31Z</time>
      </trkpt>
      <trkpt lat="45.06358" lon="5.493">
        <ele>1178</ele>
        <time>2010-01-01T01:19:33Z</time>
      </trkpt>
      <trkpt lat="45.06347" lon="5.49268">
        <ele>1194</ele>
        <time>2010-01-01T01:19:43Z</time>
      </trkpt>
      <trkpt lat="45.06339" lon="5.49253">
        <ele>1203</ele>
        <time>2010-01-01T01:19:48Z</time>
      </trkpt>
      <trkpt lat="45.06334" lon="5.49241">
        <ele>1209</ele>
        <time>2010-01-01T01:19:52Z</time>
      </trkpt>
      <trkpt lat="45.06334" lon="5.49217">
        <ele>1216</ele>
        <time>2010-01-01T01:19:59Z</time>
      </trkpt>
      <trkpt lat="45.06335" lon="5.49211">
        <ele>1218</ele>
        <time>2010-01-01T01:20:01Z</time>
      </trkpt>
      <trkpt lat="45.06337" lon="5.49209">
        <ele>1217</ele>
        <time>2010-01-01T01:20:01Z</time>
      </trkpt>
      <trkpt lat="45.06339" lon="5.49207">
        <ele>1217</ele>
        <time>2010-01-01T01:20:02Z</time>
      </trkpt>
      <trkpt lat="45.06353" lon="5.49177">
        <ele>1218</ele>
        <time>2010-01-01T01:20:13Z</time>
      </trkpt>
      <trkpt lat="45.06381" lon="5.49154">
        <ele>1203</ele>
        <time>2010-01-01T01:20:25Z</time>
      </trkpt>
      <trkpt lat="45.06386" lon="5.49154">
        <ele>1200</ele>
        <time>2010-01-01T01:20:27Z</time>
      </trkpt>
      <trkpt lat="45.06406" lon="5.49146">
        <ele>1188</ele>
        <time>2010-01-01T01:20:36Z</time>
      </trkpt>
      <trkpt lat="45.06421" lon="5.49141">
        <ele>1180</ele>
        <time>2010-01-01T01:20:42Z</time>
      </trkpt>
      <trkpt lat="45.06427" lon="5.49135">
        <ele>1177</ele>
        <time>2010-01-01T01:20:45Z</time>
      </trkpt>
      <trkpt lat="45.06432" lon="5.49131">
        <ele>1175</ele>
        <time>2010-01-01T01:20:47Z</time>
      </trkpt>
      <trkpt lat="45.06434" lon="5.4913">
        <ele>1174</ele>
        <time>2010-01-01T01:20:48Z</time>
      </trkpt>
      <trkpt lat="45.0645" lon="5.49115">
        <ele>1167</ele>
        <time>2010-01-01T01:20:56Z</time>
      </trkpt>
      <trkpt lat="45.06502" lon="5.49053">
        <ele>1138</ele>
        <time>2010-01-01T01:21:23Z</time>
      </trkpt>
      <trkpt lat="45.06509" lon="5.49042">
        <ele>1134</ele>
        <time>2010-01-01T01:21:27Z</time>
      </trkpt>
      <trkpt lat="45.06511" lon="5.49041">
        <ele>1133</ele>
        <time>2010-01-01T01:21:28Z</time>
      </trkpt>
      <trkpt lat="45.06513" lon="5.49039">
        <ele>1132</ele>
        <time>2010-01-01T01:21:29Z</time>
      </trkpt>
      <trkpt lat="45.06504" lon="5.49022">
        <ele>1131</ele>
        <time>2010-01-01T01:21:35Z</time>
      </trkpt>
      <trkpt lat="45.06499" lon="5.49011">
        <ele>1131</ele>
        <time>2010-01-01T01:21:38Z</time>
      </trkpt>
      <trkpt lat="45.06498" lon="5.49005">
        <ele>1130</ele>
        <time>2010-01-01T01:21:40Z</time>
      </trkpt>
      <trkpt lat="45.06493" lon="5.48983">
        <ele>1128</ele>
        <time>2010-01-01T01:21:47Z</time>
      </trkpt>
      <trkpt lat="45.06494" lon="5.48971">
        <ele>1125</ele>
        <time>2010-01-01T01:21:50Z</time>
      </trkpt>
      <trkpt lat="45.06484" lon="5.48958">
        <ele>1127</ele>
        <time>2010-01-01T01:21:55Z</time>
      </trkpt>
      <trkpt lat="45.06483" lon="5.48957">
        <ele>1127</ele>
        <time>2010-01-01T01:21:56Z</time>
      </trkpt>
      <trkpt lat="45.06482" lon="5.4895">
        <ele>1126</ele>
        <time>2010-01-01T01:21:58Z</time>
      </trkpt>
      <trkpt lat="45.06488" lon="5.48938">
        <ele>1121</ele>
        <time>2010-01-01T01:22:02Z</time>
      </trkpt>
      <trkpt lat="45.06488" lon="5.48926">
        <ele>1119</ele>
        <time>2010-01-01T01:22:06Z</time>
      </trkpt>
      <trkpt lat="45.06489" lon="5.48906">
        <ele>1116</ele>
        <time>2010-01-01T01:22:11Z</time>
      </trkpt>
      <trkpt lat="45.06492" lon="5.48904">
        <ele>1115</ele>
        <time>2010-01-01T01:22:13Z</time>
      </trkpt>
      <trkpt lat="45.06496" lon="5.48906">
        <ele>1113</ele>
        <time>2010-01-01T01:22:15Z</time>
      </trkpt>
      <trkpt lat="45.0649" lon="5.48886">
        <ele>1115</ele>
        <time>2010-01-01T01:22:21Z</time>
      </trkpt>
      <trkpt lat="45.06484" lon="5.48876">
        <ele>1116</ele>
        <time>2010-01-01T01:22:24Z</time>
      </trkpt>
      <trkpt lat="45.06484" lon="5.4887">
        <ele>1116</ele>
        <time>2010-01-01T01:22:26Z</time>
      </trkpt>
      <trkpt lat="45.06475" lon="5.48871">
        <ele>1119</ele>
        <time>2010-01-01T01:22:29Z</time>
      </trkpt>
      <trkpt lat="45.06455" lon="5.48834">
        <ele>1121</ele>
        <time>2010-01-01T01:22:43Z</time>
      </trkpt>
      <trkpt lat="45.06434" lon="5.48792">
        <ele>1125</ele>
        <time>2010-01-01T01:22:57Z</time>
      </trkpt>
      <trkpt lat="45.06428" lon="5.48789">
        <ele>1126</ele>
        <time>2010-01-01T01:23:00Z</time>
      </trkpt>
      <trkpt lat="45.06398" lon="5.48744">
        <ele>1130</ele>
        <time>2010-01-01T01:23:17Z</time>
      </trkpt>
      <trkpt lat="45.06376" lon="5.48698">
        <ele>1136</ele>
        <time>2010-01-01T01:23:33Z</time>
      </trkpt>
      <trkpt lat="45.06354" lon="5.48633">
        <ele>1142</ele>
        <time>2010-01-01T01:23:53Z</time>
      </trkpt>
      <trkpt lat="45.06348" lon="5.48607">
        <ele>1145</ele>
        <time>2010-01-01T01:24:01Z</time>
      </trkpt>
      <trkpt lat="45.06333" lon="5.48575">
        <ele>1150</ele>
        <time>2010-01-01T01:24:12Z</time>
      </trkpt>
      <trkpt lat="45.06331" lon="5.48572">
        <ele>1151</ele>
        <time>2010-01-01T01:24:13Z</time>
      </trkpt>
      <trkpt lat="45.06331" lon="5.48572">
        <ele>1151</ele>
        <time>2010-01-01T01:24:13Z</time>
      </trkpt>
      <trkpt lat="45.06323" lon="5.48573">
        <ele>1151</ele>
        <time>2010-01-01T01:24:16Z</time>
      </trkpt>
      <trkpt lat="45.06309" lon="5.48578">
        <ele>1151</ele>
        <time>2010-01-01T01:24:22Z</time>
      </trkpt>
      <trkpt lat="45.06311" lon="5.48573">
        <ele>1152</ele>
        <time>2010-01-01T01:24:23Z</time>
      </trkpt>
      <trkpt lat="45.06311" lon="5.48564">
        <ele>1154</ele>
        <time>2010-01-01T01:24:26Z</time>
      </trkpt>
      <trkpt lat="45.06303" lon="5.48525">
        <ele>1161</ele>
        <time>2010-01-01T01:24:38Z</time>
      </trkpt>
      <trkpt lat="45.0629" lon="5.48505">
        <ele>1165</ele>
        <time>2010-01-01T01:24:45Z</time>
      </trkpt>
      <trkpt lat="45.06262" lon="5.48456">
        <ele>1177</ele>
        <time>2010-01-01T01:25:03Z</time>
      </trkpt>
      <trkpt lat="45.06235" lon="5.48421">
        <ele>1185</ele>
        <time>2010-01-01T01:25:18Z</time>
      </trkpt>
      <trkpt lat="45.06205" lon="5.48404">
        <ele>1187</ele>
        <time>2010-01-01T01:25:31Z</time>
      </trkpt>
      <trkpt lat="45.06184" lon="5.48384">
        <ele>1191</ele>
        <time>2010-01-01T01:25:41Z</time>
      </trkpt>
      <trkpt lat="45.06167" lon="5.48369">
        <ele>1193</ele>
        <time>2010-01-01T01:25:49Z</time>
      </trkpt>
      <trkpt lat="45.06156" lon="5.48358">
        <ele>1195</ele>
        <time>2010-01-01T01:25:54Z</time>
      </trkpt>
      <trkpt lat="45.0613" lon="5.48347">
        <ele>1196</ele>
        <time>2010-01-01T01:26:05Z</time>
      </trkpt>
      <trkpt lat="45.06101" lon="5.48337">
        <ele>1196</ele>
        <time>2010-01-01T01:26:17Z</time>
      </trkpt>
      <trkpt lat="45.06088" lon="5.48299">
        <ele>1203</ele>
        <time>2010-01-01T01:26:29Z</time>
      </trkpt>
      <trkpt lat="45.06064" lon="5.48296">
        <ele>1203</ele>
        <time>2010-01-01T01:26:39Z</time>
      </trkpt>
      <trkpt lat="45.06057" lon="5.48294">
        <ele>1204</ele>
        <time>2010-01-01T01:26:42Z</time>
      </trkpt>
      <trkpt lat="45.06033" lon="5.48287">
        <ele>1204</ele>
        <time>2010-01-01T01:26:52Z</time>
      </trkpt>
      <trkpt lat="45.06017" lon="5.48281">
        <ele>1205</ele>
        <time>2010-01-01T01:26:58Z</time>
      </trkpt>
      <trkpt lat="45.06006" lon="5.48279">
        <ele>1205</ele>
        <time>2010-01-01T01:27:03Z</time>
      </trkpt>
      <trkpt lat="45.05994" lon="5.48276">
        <ele>1206</ele>
        <time>2010-01-01T01:27:07Z</time>
      </trkpt>
      <trkpt lat="45.05994" lon="5.48268">
        <ele>1206</ele>
        <time>2010-01-01T01:27:09Z</time>
      </trkpt>
      <trkpt lat="45.05984" lon="5.48268">
        <ele>1207</ele>
        <time>2010-01-01T01:27:13Z</time>
      </trkpt>
      <trkpt lat="45.05982" lon="5.48261">
        <ele>1208</ele>
        <time>2010-01-01T01:27:16Z</time>
      </trkpt>
      <trkpt lat="45.05977" lon="5.48241">
        <ele>1210</ele>
        <time>2010-01-01T01:27:21Z</time>
      </trkpt>
      <trkpt lat="45.05971" lon="5.48242">
        <ele>1211</ele>
        <time>2010-01-01T01:27:24Z</time>
      </trkpt>
      <trkpt lat="45.05955" lon="5.48213">
        <ele>1216</ele>
        <time>2010-01-01T01:27:34Z</time>
      </trkpt>
      <trkpt lat="45.05938" lon="5.48188">
        <ele>1218</ele>
        <time>2010-01-01T01:27:44Z</time>
      </trkpt>
      <trkpt lat="45.0593" lon="5.48182">
        <ele>1219</ele>
        <time>2010-01-01T01:27:48Z</time>
      </trkpt>
      <trkpt lat="45.05922" lon="5.48168">
        <ele>1219</ele>
        <time>2010-01-01T01:27:53Z</time>
      </trkpt>
      <trkpt lat="45.05917" lon="5.48159">
        <ele>1220</ele>
        <time>2010-01-01T01:27:56Z</time>
      </trkpt>
      <trkpt lat="45.05904" lon="5.48145">
        <ele>1223</ele>
        <time>2010-01-01T01:28:02Z</time>
      </trkpt>
      <trkpt lat="45.05887" lon="5.48135">
        <ele>1225</ele>
        <time>2010-01-01T01:28:10Z</time>
      </trkpt>
      <trkpt lat="45.05871" lon="5.48127">
        <ele>1227</ele>
        <time>2010-01-01T01:28:17Z</time>
      </trkpt>
      <trkpt lat="45.05859" lon="5.4812">
        <ele>1228</ele>
        <time>2010-01-01T01:28:22Z</time>
      </trkpt>
      <trkpt lat="45.05848" lon="5.48107">
        <ele>1229</ele>
        <time>2010-01-01T01:28:27Z</time>
      </trkpt>
      <trkpt lat="45.05845" lon="5.4809">
        <ele>1230</ele>
        <time>2010-01-01T01:28:32Z</time>
      </trkpt>
      <trkpt lat="45.0584" lon="5.48079">
        <ele>1231</ele>
        <time>2010-01-01T01:28:36Z</time>
      </trkpt>
      <trkpt lat="45.05836" lon="5.48072">
        <ele>1231</ele>
        <time>2010-01-01T01:28:39Z</time>
      </trkpt>
      <trkpt lat="45.05832" lon="5.48065">
        <ele>1232</ele>
        <time>2010-01-01T01:28:41Z</time>
      </trkpt>
      <trkpt lat="45.05825" lon="5.48049">
        <ele>1234</ele>
        <time>2010-01-01T01:28:46Z</time>
      </trkpt>
      <trkpt lat="45.05813" lon="5.48031">
        <ele>1236</ele>
        <time>2010-01-01T01:28:53Z</time>
      </trkpt>
      <trkpt lat="45.05801" lon="5.48014">
        <ele>1238</ele>
        <time>2010-01-01T01:29:00Z</time>
      </trkpt>
      <trkpt lat="45.05776" lon="5.47973">
        <ele>1241</ele>
        <time>2010-01-01T01:29:16Z</time>
      </trkpt>
      <trkpt lat="45.0576" lon="5.47939">
        <ele>1242</ele>
        <time>2010-01-01T01:29:27Z</time>
      </trkpt>
      <trkpt lat="45.05728" lon="5.47887">
        <ele>1249</ele>
        <time>2010-01-01T01:29:47Z</time>
      </trkpt>
      <trkpt lat="45.05688" lon="5.4786">
        <ele>1254</ele>
        <time>2010-01-01T01:30:04Z</time>
      </trkpt>
      <trkpt lat="45.05664" lon="5.47852">
        <ele>1255</ele>
        <time>2010-01-01T01:30:14Z</time>
      </trkpt>
      <trkpt lat="45.05678" lon="5.47852">
        <ele>1254</ele>
        <time>2010-01-01T01:30:20Z</time>
      </trkpt>
      <trkpt lat="45.05666" lon="5.4797">
        <ele>1249</ele>
        <time>2010-01-01T01:30:53Z</time>
      </trkpt>
      <trkpt lat="45.05662" lon="5.47969">
        <ele>1250</ele>
        <time>2010-01-01T01:30:55Z</time>
      </trkpt>
      <trkpt lat="45.05656" lon="5.4797">
        <ele>1251</ele>
        <time>2010-01-01T01:30:57Z</time>
      </trkpt>
      <trkpt lat="45.0565" lon="5.4797">
        <ele>1252</ele>
        <time>2010-01-01T01:31:00Z</time>
      </trkpt>
      <trkpt lat="45.05631" lon="5.47961">
        <ele>1256</ele>
        <time>2010-01-01T01:31:08Z</time>
      </trkpt>
      <trkpt lat="45.05625" lon="5.47959">
        <ele>1257</ele>
        <time>2010-01-01T01:31:10Z</time>
      </trkpt>
      <trkpt lat="45.05621" lon="5.47957">
        <ele>1257</ele>
        <time>2010-01-01T01:31:12Z</time>
      </trkpt>
      <trkpt lat="45.0561" lon="5.47943">
        <ele>1258</ele>
        <time>2010-01-01T01:31:18Z</time>
      </trkpt>
      <trkpt lat="45.05607" lon="5.47935">
        <ele>1258</ele>
        <time>2010-01-01T01:31:20Z</time>
      </trkpt>
      <trkpt lat="45.05595" lon="5.47901">
        <ele>1258</ele>
        <time>2010-01-01T01:31:31Z</time>
      </trkpt>
      <trkpt lat="45.05558" lon="5.47851">
        <ele>1262</ele>
        <time>2010-01-01T01:31:51Z</time>
      </trkpt>
      <trkpt lat="45.05545" lon="5.47833">
        <ele>1263</ele>
        <time>2010-01-01T01:31:59Z</time>
      </trkpt>
      <trkpt lat="45.05539" lon="5.47825">
        <ele>1264</ele>
        <time>2010-01-01T01:32:02Z</time>
      </trkpt>
      <trkpt lat="45.05541" lon="5.4782">
        <ele>1264</ele>
        <time>2010-01-01T01:32:04Z</time>
      </trkpt>
      <trkpt lat="45.05537" lon="5.47816">
        <ele>1264</ele>
        <time>2010-01-01T01:32:05Z</time>
      </trkpt>
      <trkpt lat="45.05527" lon="5.47808">
        <ele>1266</ele>
        <time>2010-01-01T01:32:10Z</time>
      </trkpt>
      <trkpt lat="45.05503" lon="5.4778">
        <ele>1268</ele>
        <time>2010-01-01T01:32:23Z</time>
      </trkpt>
      <trkpt lat="45.05463" lon="5.4775">
        <ele>1274</ele>
        <time>2010-01-01T01:32:41Z</time>
      </trkpt>
      <trkpt lat="45.05438" lon="5.47733">
        <ele>1277</ele>
        <time>2010-01-01T01:32:52Z</time>
      </trkpt>
      <trkpt lat="45.05407" lon="5.47721">
        <ele>1281</ele>
        <time>2010-01-01T01:33:05Z</time>
      </trkpt>
      <trkpt lat="45.05382" lon="5.47708">
        <ele>1284</ele>
        <time>2010-01-01T01:33:15Z</time>
      </trkpt>
      <trkpt lat="45.05338" lon="5.47666">
        <ele>1288</ele>
        <time>2010-01-01T01:33:36Z</time>
      </trkpt>
      <trkpt lat="45.05321" lon="5.47663">
        <ele>1289</ele>
        <time>2010-01-01T01:33:43Z</time>
      </trkpt>
      <trkpt lat="45.05302" lon="5.47658">
        <ele>1292</ele>
        <time>2010-01-01T01:33:51Z</time>
      </trkpt>
      <trkpt lat="45.05291" lon="5.47656">
        <ele>1293</ele>
        <time>2010-01-01T01:33:55Z</time>
      </trkpt>
      <trkpt lat="45.05274" lon="5.47648">
        <ele>1295</ele>
        <time>2010-01-01T01:34:03Z</time>
      </trkpt>
      <trkpt lat="45.05241" lon="5.47613">
        <ele>1299</ele>
        <time>2010-01-01T01:34:19Z</time>
      </trkpt>
      <trkpt lat="45.05195" lon="5.47599">
        <ele>1302</ele>
        <time>2010-01-01T01:34:38Z</time>
      </trkpt>
      <trkpt lat="45.05184" lon="5.47597">
        <ele>1303</ele>
        <time>2010-01-01T01:34:42Z</time>
      </trkpt>
      <trkpt lat="45.05161" lon="5.47589">
        <ele>1305</ele>
        <time>2010-01-01T01:34:52Z</time>
      </trkpt>
      <trkpt lat="45.05135" lon="5.47587">
        <ele>1306</ele>
        <time>2010-01-01T01:35:02Z</time>
      </trkpt>
      <trkpt lat="45.05108" lon="5.47588">
        <ele>1308</ele>
        <time>2010-01-01T01:35:13Z</time>
      </trkpt>
      <trkpt lat="45.05068" lon="5.47592">
        <ele>1311</ele>
        <time>2010-01-01T01:35:29Z</time>
      </trkpt>
      <trkpt lat="45.05053" lon="5.47599">
        <ele>1313</ele>
        <time>2010-01-01T01:35:35Z</time>
      </trkpt>
      <trkpt lat="45.0505" lon="5.476">
        <ele>1313</ele>
        <time>2010-01-01T01:35:37Z</time>
      </trkpt>
      <trkpt lat="45.0505" lon="5.476">
        <ele>1313</ele>
        <time>2010-01-01T01:35:37Z</time>
      </trkpt>
      <trkpt lat="45.05034" lon="5.47612">
        <ele>1315</ele>
        <time>2010-01-01T01:35:44Z</time>
      </trkpt>
      <trkpt lat="45.05013" lon="5.47627">
        <ele>1316</ele>
        <time>2010-01-01T01:35:53Z</time>
      </trkpt>
      <trkpt lat="45.04937" lon="5.47652">
        <ele>1325</ele>
        <time>2010-01-01T01:36:24Z</time>
      </trkpt>
      <trkpt lat="45.04932" lon="5.47657">
        <ele>1326</ele>
        <time>2010-01-01T01:36:27Z</time>
      </trkpt>
      <trkpt lat="45.04908" lon="5.47662">
        <ele>1329</ele>
        <time>2010-01-01T01:36:36Z</time>
      </trkpt>
      <trkpt lat="45.04906" lon="5.47662">
        <ele>1329</ele>
        <time>2010-01-01T01:36:37Z</time>
      </trkpt>
      <trkpt lat="45.04884" lon="5.47662">
        <ele>1332</ele>
        <time>2010-01-01T01:36:46Z</time>
      </trkpt>
      <trkpt lat="45.04882" lon="5.47661">
        <ele>1332</ele>
        <time>2010-01-01T01:36:47Z</time>
      </trkpt>
      <trkpt lat="45.04867" lon="5.47662">
        <ele>1334</ele>
        <time>2010-01-01T01:36:53Z</time>
      </trkpt>
      <trkpt lat="45.0485" lon="5.47657">
        <ele>1336</ele>
        <time>2010-01-01T01:37:00Z</time>
      </trkpt>
      <trkpt lat="45.04789" lon="5.47685">
        <ele>1346</ele>
        <time>2010-01-01T01:37:26Z</time>
      </trkpt>
      <trkpt lat="45.04778" lon="5.47687">
        <ele>1347</ele>
        <time>2010-01-01T01:37:30Z</time>
      </trkpt>
      <trkpt lat="45.04605" lon="5.47703">
        <ele>1368</ele>
        <time>2010-01-01T01:38:39Z</time>
      </trkpt>
      <trkpt lat="45.04599" lon="5.47703">
        <ele>1369</ele>
        <time>2010-01-01T01:38:42Z</time>
      </trkpt>
      <trkpt lat="45.0458" lon="5.47696">
        <ele>1371</ele>
        <time>2010-01-01T01:38:49Z</time>
      </trkpt>
      <trkpt lat="45.04553" lon="5.47683">
        <ele>1373</ele>
        <time>2010-01-01T01:39:01Z</time>
      </trkpt>
      <trkpt lat="45.04554" lon="5.47681">
        <ele>1373</ele>
        <time>2010-01-01T01:39:02Z</time>
      </trkpt>
      <trkpt lat="45.04534" lon="5.4766">
        <ele>1374</ele>
        <time>2010-01-01T01:39:12Z</time>
      </trkpt>
      <trkpt lat="45.04533" lon="5.47667">
        <ele>1374</ele>
        <time>2010-01-01T01:39:14Z</time>
      </trkpt>
      <trkpt lat="45.04536" lon="5.47681">
        <ele>1374</ele>
        <time>2010-01-01T01:39:18Z</time>
      </trkpt>
      <trkpt lat="45.04543" lon="5.4773">
        <ele>1375</ele>
        <time>2010-01-01T01:39:32Z</time>
      </trkpt>
      <trkpt lat="45.04583" lon="5.47777">
        <ele>1374</ele>
        <time>2010-01-01T01:39:53Z</time>
      </trkpt>
      <trkpt lat="45.04618" lon="5.47808">
        <ele>1368</ele>
        <time>2010-01-01T01:40:10Z</time>
      </trkpt>
      <trkpt lat="45.04663" lon="5.47836">
        <ele>1359</ele>
        <time>2010-01-01T01:40:29Z</time>
      </trkpt>
      <trkpt lat="45.0467" lon="5.47839">
        <ele>1359</ele>
        <time>2010-01-01T01:40:32Z</time>
      </trkpt>
      <trkpt lat="45.04715" lon="5.47855">
        <ele>1359</ele>
        <time>2010-01-01T01:40:51Z</time>
      </trkpt>
      <trkpt lat="45.04763" lon="5.47877">
        <ele>1360</ele>
        <time>2010-01-01T01:41:11Z</time>
      </trkpt>
      <trkpt lat="45.04768" lon="5.47879">
        <ele>1360</ele>
        <time>2010-01-01T01:41:13Z</time>
      </trkpt>
      <trkpt lat="45.04807" lon="5.47896">
        <ele>1362</ele>
        <time>2010-01-01T01:41:29Z</time>
      </trkpt>
      <trkpt lat="45.04828" lon="5.47909">
        <ele>1364</ele>
        <time>2010-01-01T01:41:38Z</time>
      </trkpt>
      <trkpt lat="45.0486" lon="5.47923">
        <ele>1365</ele>
        <time>2010-01-01T01:41:52Z</time>
      </trkpt>
      <trkpt lat="45.04908" lon="5.47942">
        <ele>1367</ele>
        <time>2010-01-01T01:42:12Z</time>
      </trkpt>
      <trkpt lat="45.04948" lon="5.47958">
        <ele>1369</ele>
        <time>2010-01-01T01:42:29Z</time>
      </trkpt>
      <trkpt lat="45.04956" lon="5.4796">
        <ele>1369</ele>
        <time>2010-01-01T01:42:32Z</time>
      </trkpt>
      <trkpt lat="45.04962" lon="5.47962">
        <ele>1369</ele>
        <time>2010-01-01T01:42:34Z</time>
      </trkpt>
      <trkpt lat="45.0497" lon="5.47967">
        <ele>1370</ele>
        <time>2010-01-01T01:42:38Z</time>
      </trkpt>
      <trkpt lat="45.04973" lon="5.47969">
        <ele>1370</ele>
        <time>2010-01-01T01:42:39Z</time>
      </trkpt>
      <trkpt lat="45.04976" lon="5.4797">
        <ele>1370</ele>
        <time>2010-01-01T01:42:40Z</time>
      </trkpt>
      <trkpt lat="45.05002" lon="5.4797">
        <ele>1368</ele>
        <time>2010-01-01T01:42:51Z</time>
      </trkpt>
      <trkpt lat="45.05029" lon="5.47982">
        <ele>1369</ele>
        <time>2010-01-01T01:43:02Z</time>
      </trkpt>
      <trkpt lat="45.05059" lon="5.47989">
        <ele>1369</ele>
        <time>2010-01-01T01:43:15Z</time>
      </trkpt>
      <trkpt lat="45.05087" lon="5.47993">
        <ele>1368</ele>
        <time>2010-01-01T01:43:26Z</time>
      </trkpt>
      <trkpt lat="45.05096" lon="5.47995">
        <ele>1367</ele>
        <time>2010-01-01T01:43:29Z</time>
      </trkpt>
      <trkpt lat="45.05105" lon="5.47998">
        <ele>1367</ele>
        <time>2010-01-01T01:43:33Z</time>
      </trkpt>
      <trkpt lat="45.05105" lon="5.47998">
        <ele>1367</ele>
        <time>2010-01-01T01:43:33Z</time>
      </trkpt>
      <trkpt lat="45.05105" lon="5.47999">
        <ele>1368</ele>
        <time>2010-01-01T01:43:34Z</time>
      </trkpt>
      <trkpt lat="45.05084" lon="5.48045">
        <ele>1386</ele>
        <time>2010-01-01T01:43:49Z</time>
      </trkpt>
      <trkpt lat="45.04941" lon="5.48025">
        <ele>1392</ele>
        <time>2010-01-01T01:44:47Z</time>
      </trkpt>
      <trkpt lat="45.04802" lon="5.48038">
        <ele>1415</ele>
        <time>2010-01-01T01:45:42Z</time>
      </trkpt>
      <trkpt lat="45.04729" lon="5.48067">
        <ele>1430</ele>
        <time>2010-01-01T01:46:13Z</time>
      </trkpt>
      <trkpt lat="45.04662" lon="5.48066">
        <ele>1423</ele>
        <time>2010-01-01T01:46:39Z</time>
      </trkpt>
      <trkpt lat="45.04599" lon="5.48081">
        <ele>1423</ele>
        <time>2010-01-01T01:47:05Z</time>
      </trkpt>
      <trkpt lat="45.0455" lon="5.48083">
        <ele>1422</ele>
        <time>2010-01-01T01:47:25Z</time>
      </trkpt>
      <trkpt lat="45.04486" lon="5.48127">
        <ele>1448</ele>
        <time>2010-01-01T01:47:53Z</time>
      </trkpt>
      <trkpt lat="45.04412" lon="5.48144">
        <ele>1453</ele>
        <time>2010-01-01T01:48:23Z</time>
      </trkpt>
      <trkpt lat="45.04374" lon="5.48196">
        <ele>1470</ele>
        <time>2010-01-01T01:48:44Z</time>
      </trkpt>
      <trkpt lat="45.04397" lon="5.48286">
        <ele>1493</ele>
        <time>2010-01-01T01:49:11Z</time>
      </trkpt>
      <trkpt lat="45.04476" lon="5.48385">
        <ele>1514</ele>
        <time>2010-01-01T01:49:53Z</time>
      </trkpt>
      <trkpt lat="45.04475" lon="5.48299">
        <ele>1512</ele>
        <time>2010-01-01T01:50:18Z</time>
      </trkpt>
      <trkpt lat="45.04532" lon="5.48383">
        <ele>1525</ele>
        <time>2010-01-01T01:50:50Z</time>
      </trkpt>
      <trkpt lat="45.04628" lon="5.48474">
        <ele>1533</ele>
        <time>2010-01-01T01:51:37Z</time>
      </trkpt>
      <trkpt lat="45.04813" lon="5.48582">
        <ele>1540</ele>
        <time>2010-01-01T01:52:57Z</time>
      </trkpt>
      <trkpt lat="45.04869" lon="5.48653">
        <ele>1540</ele>
        <time>2010-01-01T01:53:27Z</time>
      </trkpt>
      <trkpt lat="45.04849" lon="5.488">
        <ele>1535</ele>
        <time>2010-01-01T01:54:10Z</time>
      </trkpt>
      <trkpt lat="45.04847" lon="5.48803">
        <ele>1535</ele>
        <time>2010-01-01T01:54:11Z</time>
      </trkpt>
      <trkpt lat="45.0484" lon="5.48815">
        <ele>1533</ele>
        <time>2010-01-01T01:54:15Z</time>
      </trkpt>
      <trkpt lat="45.04823" lon="5.48835">
        <ele>1530</ele>
        <time>2010-01-01T01:54:24Z</time>
      </trkpt>
      <trkpt lat="45.04797" lon="5.48868">
        <ele>1524</ele>
        <time>2010-01-01T01:54:38Z</time>
      </trkpt>
      <trkpt lat="45.04795" lon="5.48872">
        <ele>1524</ele>
        <time>2010-01-01T01:54:39Z</time>
      </trkpt>
      <trkpt lat="45.04775" lon="5.48892">
        <ele>1520</ele>
        <time>2010-01-01T01:54:49Z</time>
      </trkpt>
      <trkpt lat="45.04757" lon="5.48918">
        <ele>1515</ele>
        <time>2010-01-01T01:54:59Z</time>
      </trkpt>
      <trkpt lat="45.04735" lon="5.48948">
        <ele>1511</ele>
        <time>2010-01-01T01:55:11Z</time>
      </trkpt>
      <trkpt lat="45.04707" lon="5.48964">
        <ele>1508</ele>
        <time>2010-01-01T01:55:24Z</time>
      </trkpt>
      <trkpt lat="45.04684" lon="5.48994">
        <ele>1502</ele>
        <time>2010-01-01T01:55:36Z</time>
      </trkpt>
      <trkpt lat="45.04681" lon="5.48997">
        <ele>1501</ele>
        <time>2010-01-01T01:55:37Z</time>
      </trkpt>
      <trkpt lat="45.04672" lon="5.49005">
        <ele>1499</ele>
        <time>2010-01-01T01:55:42Z</time>
      </trkpt>
      <trkpt lat="45.04663" lon="5.49015">
        <ele>1497</ele>
        <time>2010-01-01T01:55:46Z</time>
      </trkpt>
      <trkpt lat="45.0466" lon="5.49017">
        <ele>1497</ele>
        <time>2010-01-01T01:55:48Z</time>
      </trkpt>
      <trkpt lat="45.04656" lon="5.49023">
        <ele>1496</ele>
        <time>2010-01-01T01:55:50Z</time>
      </trkpt>
      <trkpt lat="45.04637" lon="5.49035">
        <ele>1494</ele>
        <time>2010-01-01T01:55:58Z</time>
      </trkpt>
      <trkpt lat="45.04613" lon="5.49046">
        <ele>1491</ele>
        <time>2010-01-01T01:56:09Z</time>
      </trkpt>
      <trkpt lat="45.04598" lon="5.49051">
        <ele>1490</ele>
        <time>2010-01-01T01:56:15Z</time>
      </trkpt>
      <trkpt lat="45.04567" lon="5.49052">
        <ele>1490</ele>
        <time>2010-01-01T01:56:27Z</time>
      </trkpt>
      <trkpt lat="45.04545" lon="5.49067">
        <ele>1487</ele>
        <time>2010-01-01T01:56:37Z</time>
      </trkpt>
      <trkpt lat="45.04543" lon="5.49077">
        <ele>1484</ele>
        <time>2010-01-01T01:56:40Z</time>
      </trkpt>
      <trkpt lat="45.04538" lon="5.49124">
        <ele>1474</ele>
        <time>2010-01-01T01:56:53Z</time>
      </trkpt>
      <trkpt lat="45.04541" lon="5.49133">
        <ele>1473</ele>
        <time>2010-01-01T01:56:56Z</time>
      </trkpt>
      <trkpt lat="45.04541" lon="5.49135">
        <ele>1472</ele>
        <time>2010-01-01T01:56:56Z</time>
      </trkpt>
      <trkpt lat="45.04539" lon="5.49143">
        <ele>1470</ele>
        <time>2010-01-01T01:56:59Z</time>
      </trkpt>
      <trkpt lat="45.04537" lon="5.49167">
        <ele>1465</ele>
        <time>2010-01-01T01:57:06Z</time>
      </trkpt>
      <trkpt lat="45.04534" lon="5.49183">
        <ele>1463</ele>
        <time>2010-01-01T01:57:10Z</time>
      </trkpt>
      <trkpt lat="45.04527" lon="5.49196">
        <ele>1461</ele>
        <time>2010-01-01T01:57:15Z</time>
      </trkpt>
      <trkpt lat="45.04507" lon="5.49238">
        <ele>1453</ele>
        <time>2010-01-01T01:57:29Z</time>
      </trkpt>
      <trkpt lat="45.04506" lon="5.4924">
        <ele>1453</ele>
        <time>2010-01-01T01:57:30Z</time>
      </trkpt>
      <trkpt lat="45.0449" lon="5.4926">
        <ele>1449</ele>
        <time>2010-01-01T01:57:39Z</time>
      </trkpt>
      <trkpt lat="45.04477" lon="5.49267">
        <ele>1447</ele>
        <time>2010-01-01T01:57:44Z</time>
      </trkpt>
      <trkpt lat="45.04474" lon="5.49269">
        <ele>1447</ele>
        <time>2010-01-01T01:57:45Z</time>
      </trkpt>
      <trkpt lat="45.04467" lon="5.49273">
        <ele>1446</ele>
        <time>2010-01-01T01:57:48Z</time>
      </trkpt>
      <trkpt lat="45.04437" lon="5.49291">
        <ele>1441</ele>
        <time>2010-01-01T01:58:01Z</time>
      </trkpt>
      <trkpt lat="45.04376" lon="5.49329">
        <ele>1433</ele>
        <time>2010-01-01T01:58:28Z</time>
      </trkpt>
      <trkpt lat="45.0433" lon="5.49291">
        <ele>1434</ele>
        <time>2010-01-01T01:58:50Z</time>
      </trkpt>
      <trkpt lat="45.04274" lon="5.49336">
        <ele>1425</ele>
        <time>2010-01-01T01:59:15Z</time>
      </trkpt>
      <trkpt lat="45.04193" lon="5.49327">
        <ele>1424</ele>
        <time>2010-01-01T01:59:48Z</time>
      </trkpt>
      <trkpt lat="45.04072" lon="5.49356">
        <ele>1415</ele>
        <time>2010-01-01T02:00:37Z</time>
      </trkpt>
      <trkpt lat="45.0401" lon="5.49383">
        <ele>1406</ele>
        <time>2010-01-01T02:01:03Z</time>
      </trkpt>
      <trkpt lat="45.04" lon="5.49391">
        <ele>1404</ele>
        <time>2010-01-01T02:01:07Z</time>
      </trkpt>
      <trkpt lat="45.03993" lon="5.49392">
        <ele>1403</ele>
        <time>2010-01-01T02:01:10Z</time>
      </trkpt>
      <trkpt lat="45.03975" lon="5.49393">
        <ele>1400</ele>
        <time>2010-01-01T02:01:18Z</time>
      </trkpt>
      <trkpt lat="45.03973" lon="5.49395">
        <ele>1399</ele>
        <time>2010-01-01T02:01:18Z</time>
      </trkpt>
      <trkpt lat="45.0397" lon="5.49398">
        <ele>1398</ele>
        <time>2010-01-01T02:01:20Z</time>
      </trkpt>
      <trkpt lat="45.03952" lon="5.49399">
        <ele>1395</ele>
        <time>2010-01-01T02:01:27Z</time>
      </trkpt>
      <trkpt lat="45.03915" lon="5.49395">
        <ele>1390</ele>
        <time>2010-01-01T02:01:42Z</time>
      </trkpt>
      <trkpt lat="45.03901" lon="5.49392">
        <ele>1389</ele>
        <time>2010-01-01T02:01:47Z</time>
      </trkpt>
      <trkpt lat="45.03875" lon="5.49387">
        <ele>1388</ele>
        <time>2010-01-01T02:01:58Z</time>
      </trkpt>
      <trkpt lat="45.03843" lon="5.49387">
        <ele>1386</ele>
        <time>2010-01-01T02:02:11Z</time>
      </trkpt>
      <trkpt lat="45.03835" lon="5.49385">
        <ele>1386</ele>
        <time>2010-01-01T02:02:14Z</time>
      </trkpt>
      <trkpt lat="45.03785" lon="5.49372">
        <ele>1390</ele>
        <time>2010-01-01T02:02:35Z</time>
      </trkpt>
      <trkpt lat="45.03772" lon="5.49373">
        <ele>1390</ele>
        <time>2010-01-01T02:02:40Z</time>
      </trkpt>
      <trkpt lat="45.03758" lon="5.49378">
        <ele>1390</ele>
        <time>2010-01-01T02:02:46Z</time>
      </trkpt>
      <trkpt lat="45.03738" lon="5.49372">
        <ele>1393</ele>
        <time>2010-01-01T02:02:53Z</time>
      </trkpt>
      <trkpt lat="45.0371" lon="5.49371">
        <ele>1396</ele>
        <time>2010-01-01T02:03:05Z</time>
      </trkpt>
      <trkpt lat="45.03695" lon="5.49378">
        <ele>1396</ele>
        <time>2010-01-01T02:03:11Z</time>
      </trkpt>
      <trkpt lat="45.03692" lon="5.49392">
        <ele>1393</ele>
        <time>2010-01-01T02:03:15Z</time>
      </trkpt>
      <trkpt lat="45.03687" lon="5.49398">
        <ele>1393</ele>
        <time>2010-01-01T02:03:18Z</time>
      </trkpt>
      <trkpt lat="45.03674" lon="5.49418">
        <ele>1390</ele>
        <time>2010-01-01T02:03:26Z</time>
      </trkpt>
      <trkpt lat="45.03661" lon="5.49422">
        <ele>1390</ele>
        <time>2010-01-01T02:03:31Z</time>
      </trkpt>
      <trkpt lat="45.03659" lon="5.49424">
        <ele>1390</ele>
        <time>2010-01-01T02:03:32Z</time>
      </trkpt>
      <trkpt lat="45.03655" lon="5.49425">
        <ele>1390</ele>
        <time>2010-01-01T02:03:33Z</time>
      </trkpt>
      <trkpt lat="45.03656" lon="5.49426">
        <ele>1390</ele>
        <time>2010-01-01T02:03:33Z</time>
      </trkpt>
      <trkpt lat="45.03643" lon="5.49413">
        <ele>1394</ele>
        <time>2010-01-01T02:03:39Z</time>
      </trkpt>
      <trkpt lat="45.03636" lon="5.49416">
        <ele>1394</ele>
        <time>2010-01-01T02:03:43Z</time>
      </trkpt>
      <trkpt lat="45.03601" lon="5.4945">
        <ele>1389</ele>
        <time>2010-01-01T02:03:59Z</time>
      </trkpt>
      <trkpt lat="45.03582" lon="5.49473">
        <ele>1384</ele>
        <time>2010-01-01T02:04:10Z</time>
      </trkpt>
      <trkpt lat="45.0357" lon="5.49483">
        <ele>1383</ele>
        <time>2010-01-01T02:04:15Z</time>
      </trkpt>
      <trkpt lat="45.03534" lon="5.49508">
        <ele>1379</ele>
        <time>2010-01-01T02:04:31Z</time>
      </trkpt>
      <trkpt lat="45.03531" lon="5.4951">
        <ele>1379</ele>
        <time>2010-01-01T02:04:32Z</time>
      </trkpt>
      <trkpt lat="45.03512" lon="5.49521">
        <ele>1377</ele>
        <time>2010-01-01T02:04:41Z</time>
      </trkpt>
      <trkpt lat="45.03501" lon="5.49527">
        <ele>1376</ele>
        <time>2010-01-01T02:04:45Z</time>
      </trkpt>
      <trkpt lat="45.03489" lon="5.49537">
        <ele>1374</ele>
        <time>2010-01-01T02:04:51Z</time>
      </trkpt>
      <trkpt lat="45.03487" lon="5.49538">
        <ele>1374</ele>
        <time>2010-01-01T02:04:52Z</time>
      </trkpt>
      <trkpt lat="45.03486" lon="5.49539">
        <ele>1373</ele>
        <time>2010-01-01T02:04:52Z</time>
      </trkpt>
      <trkpt lat="45.03484" lon="5.49543">
        <ele>1372</ele>
        <time>2010-01-01T02:04:54Z</time>
      </trkpt>
      <trkpt lat="45.03484" lon="5.49548">
        <ele>1371</ele>
        <time>2010-01-01T02:04:55Z</time>
      </trkpt>
      <trkpt lat="45.03494" lon="5.49551">
        <ele>1370</ele>
        <time>2010-01-01T02:04:59Z</time>
      </trkpt>
      <trkpt lat="45.03489" lon="5.49573">
        <ele>1363</ele>
        <time>2010-01-01T02:05:06Z</time>
      </trkpt>
      <trkpt lat="45.03476" lon="5.49586">
        <ele>1360</ele>
        <time>2010-01-01T02:05:12Z</time>
      </trkpt>
      <trkpt lat="45.03451" lon="5.49604">
        <ele>1354</ele>
        <time>2010-01-01T02:05:23Z</time>
      </trkpt>
      <trkpt lat="45.03439" lon="5.49614">
        <ele>1351</ele>
        <time>2010-01-01T02:05:29Z</time>
      </trkpt>
      <trkpt lat="45.03437" lon="5.49627">
        <ele>1346</ele>
        <time>2010-01-01T02:05:32Z</time>
      </trkpt>
      <trkpt lat="45.0343" lon="5.49645">
        <ele>1339</ele>
        <time>2010-01-01T02:05:38Z</time>
      </trkpt>
      <trkpt lat="45.03433" lon="5.49673">
        <ele>1330</ele>
        <time>2010-01-01T02:05:46Z</time>
      </trkpt>
      <trkpt lat="45.03432" lon="5.49684">
        <ele>1329</ele>
        <time>2010-01-01T02:05:49Z</time>
      </trkpt>
      <trkpt lat="45.03426" lon="5.4971">
        <ele>1324</ele>
        <time>2010-01-01T02:05:57Z</time>
      </trkpt>
      <trkpt lat="45.03418" lon="5.4979">
        <ele>1315</ele>
        <time>2010-01-01T02:06:20Z</time>
      </trkpt>
      <trkpt lat="45.03436" lon="5.49868">
        <ele>1313</ele>
        <time>2010-01-01T02:06:43Z</time>
      </trkpt>
      <trkpt lat="45.03472" lon="5.49923">
        <ele>1309</ele>
        <time>2010-01-01T02:07:04Z</time>
      </trkpt>
      <trkpt lat="45.03492" lon="5.49975">
        <ele>1309</ele>
        <time>2010-01-01T02:07:21Z</time>
      </trkpt>
      <trkpt lat="45.0346" lon="5.50014">
        <ele>1311</ele>
        <time>2010-01-01T02:07:38Z</time>
      </trkpt>
      <trkpt lat="45.03444" lon="5.50038">
        <ele>1310</ele>
        <time>2010-01-01T02:07:47Z</time>
      </trkpt>
      <trkpt lat="45.03441" lon="5.50059">
        <ele>1308</ele>
        <time>2010-01-01T02:07:53Z</time>
      </trkpt>
      <trkpt lat="45.03441" lon="5.50061">
        <ele>1308</ele>
        <time>2010-01-01T02:07:54Z</time>
      </trkpt>
      <trkpt lat="45.03432" lon="5.50092">
        <ele>1305</ele>
        <time>2010-01-01T02:08:03Z</time>
      </trkpt>
      <trkpt lat="45.03435" lon="5.50105">
        <ele>1304</ele>
        <time>2010-01-01T02:08:07Z</time>
      </trkpt>
      <trkpt lat="45.03436" lon="5.50148">
        <ele>1298</ele>
        <time>2010-01-01T02:08:19Z</time>
      </trkpt>
      <trkpt lat="45.03445" lon="5.50159">
        <ele>1297</ele>
        <time>2010-01-01T02:08:24Z</time>
      </trkpt>
      <trkpt lat="45.03456" lon="5.50187">
        <ele>1294</ele>
        <time>2010-01-01T02:08:33Z</time>
      </trkpt>
      <trkpt lat="45.03456" lon="5.50191">
        <ele>1294</ele>
        <time>2010-01-01T02:08:34Z</time>
      </trkpt>
      <trkpt lat="45.03473" lon="5.50211">
        <ele>1292</ele>
        <time>2010-01-01T02:08:43Z</time>
      </trkpt>
      <trkpt lat="45.03477" lon="5.50219">
        <ele>1291</ele>
        <time>2010-01-01T02:08:45Z</time>
      </trkpt>
      <trkpt lat="45.03479" lon="5.50231">
        <ele>1290</ele>
        <time>2010-01-01T02:08:49Z</time>
      </trkpt>
      <trkpt lat="45.03485" lon="5.50236">
        <ele>1289</ele>
        <time>2010-01-01T02:08:52Z</time>
      </trkpt>
      <trkpt lat="45.03494" lon="5.50247">
        <ele>1288</ele>
        <time>2010-01-01T02:08:57Z</time>
      </trkpt>
      <trkpt lat="45.03497" lon="5.5025">
        <ele>1288</ele>
        <time>2010-01-01T02:08:58Z</time>
      </trkpt>
      <trkpt lat="45.03503" lon="5.50256">
        <ele>1287</ele>
        <time>2010-01-01T02:09:01Z</time>
      </trkpt>
      <trkpt lat="45.0351" lon="5.5027">
        <ele>1284</ele>
        <time>2010-01-01T02:09:06Z</time>
      </trkpt>
      <trkpt lat="45.0351" lon="5.50274">
        <ele>1284</ele>
        <time>2010-01-01T02:09:07Z</time>
      </trkpt>
      <trkpt lat="45.03592" lon="5.50307">
        <ele>1277</ele>
        <time>2010-01-01T02:09:41Z</time>
      </trkpt>
      <trkpt lat="45.0359" lon="5.50309">
        <ele>1277</ele>
        <time>2010-01-01T02:09:41Z</time>
      </trkpt>
      <trkpt lat="45.0359" lon="5.50313">
        <ele>1276</ele>
        <time>2010-01-01T02:09:43Z</time>
      </trkpt>
      <trkpt lat="45.0359" lon="5.50328">
        <ele>1274</ele>
        <time>2010-01-01T02:09:47Z</time>
      </trkpt>
      <trkpt lat="45.0359" lon="5.5033">
        <ele>1274</ele>
        <time>2010-01-01T02:09:47Z</time>
      </trkpt>
      <trkpt lat="45.0359" lon="5.50361">
        <ele>1269</ele>
        <time>2010-01-01T02:09:56Z</time>
      </trkpt>
      <trkpt lat="45.03592" lon="5.5037">
        <ele>1268</ele>
        <time>2010-01-01T02:09:59Z</time>
      </trkpt>
      <trkpt lat="45.036" lon="5.50386">
        <ele>1266</ele>
        <time>2010-01-01T02:10:04Z</time>
      </trkpt>
      <trkpt lat="45.03611" lon="5.50394">
        <ele>1265</ele>
        <time>2010-01-01T02:10:09Z</time>
      </trkpt>
      <trkpt lat="45.03614" lon="5.50396">
        <ele>1265</ele>
        <time>2010-01-01T02:10:11Z</time>
      </trkpt>
      <trkpt lat="45.03618" lon="5.50399">
        <ele>1265</ele>
        <time>2010-01-01T02:10:12Z</time>
      </trkpt>
      <trkpt lat="45.03627" lon="5.50408">
        <ele>1264</ele>
        <time>2010-01-01T02:10:17Z</time>
      </trkpt>
      <trkpt lat="45.03636" lon="5.50423">
        <ele>1263</ele>
        <time>2010-01-01T02:10:22Z</time>
      </trkpt>
      <trkpt lat="45.03656" lon="5.505">
        <ele>1258</ele>
        <time>2010-01-01T02:10:46Z</time>
      </trkpt>
      <trkpt lat="45.03664" lon="5.50577">
        <ele>1255</ele>
        <time>2010-01-01T02:11:08Z</time>
      </trkpt>
      <trkpt lat="45.03667" lon="5.50592">
        <ele>1254</ele>
        <time>2010-01-01T02:11:12Z</time>
      </trkpt>
      <trkpt lat="45.03679" lon="5.5064">
        <ele>1252</ele>
        <time>2010-01-01T02:11:26Z</time>
      </trkpt>
      <trkpt lat="45.0369" lon="5.507">
        <ele>1248</ele>
        <time>2010-01-01T02:11:44Z</time>
      </trkpt>
      <trkpt lat="45.03688" lon="5.50767">
        <ele>1245</ele>
        <time>2010-01-01T02:12:03Z</time>
      </trkpt>
      <trkpt lat="45.03686" lon="5.50779">
        <ele>1245</ele>
        <time>2010-01-01T02:12:06Z</time>
      </trkpt>
      <trkpt lat="45.03688" lon="5.508">
        <ele>1246</ele>
        <time>2010-01-01T02:12:12Z</time>
      </trkpt>
      <trkpt lat="45.03689" lon="5.508">
        <ele>1246</ele>
        <time>2010-01-01T02:12:13Z</time>
      </trkpt>
      <trkpt lat="45.03689" lon="5.508">
        <ele>1246</ele>
        <time>2010-01-01T02:12:13Z</time>
      </trkpt>
      <trkpt lat="45.03689" lon="5.508">
        <ele>1246</ele>
        <time>2010-01-01T02:12:13Z</time>
      </trkpt>
      <trkpt lat="45.0369" lon="5.50805">
        <ele>1246</ele>
        <time>2010-01-01T02:12:14Z</time>
      </trkpt>
      <trkpt lat="45.03691" lon="5.50808">
        <ele>1246</ele>
        <time>2010-01-01T02:12:15Z</time>
      </trkpt>
      <trkpt lat="45.03682" lon="5.50823">
        <ele>1246</ele>
        <time>2010-01-01T02:12:21Z</time>
      </trkpt>
      <trkpt lat="45.0367" lon="5.50888">
        <ele>1249</ele>
        <time>2010-01-01T02:12:39Z</time>
      </trkpt>
      <trkpt lat="45.03576" lon="5.509">
        <ele>1246</ele>
        <time>2010-01-01T02:13:17Z</time>
      </trkpt>
      <trkpt lat="45.0354" lon="5.50986">
        <ele>1251</ele>
        <time>2010-01-01T02:13:46Z</time>
      </trkpt>
      <trkpt lat="45.03506" lon="5.51089">
        <ele>1251</ele>
        <time>2010-01-01T02:14:18Z</time>
      </trkpt>
      <trkpt lat="45.03503" lon="5.51115">
        <ele>1251</ele>
        <time>2010-01-01T02:14:25Z</time>
      </trkpt>
      <trkpt lat="45.03479" lon="5.51115">
        <ele>1255</ele>
        <time>2010-01-01T02:14:35Z</time>
      </trkpt>
      <trkpt lat="45.03449" lon="5.51192">
        <ele>1262</ele>
        <time>2010-01-01T02:15:00Z</time>
      </trkpt>
      <trkpt lat="45.03468" lon="5.51284">
        <ele>1262.58</ele>
        <time>2010-01-01T02:15:27Z</time>
      </trkpt>
      <trkpt lat="45.03478" lon="5.5137">
        <ele>1261.31</ele>
        <time>2010-01-01T02:15:51Z</time>
      </trkpt>
      <trkpt lat="45.0355" lon="5.51437">
        <ele>1257.54</ele>
        <time>2010-01-01T02:16:26Z</time>
      </trkpt>
      <trkpt lat="45.03498" lon="5.51578">
        <ele>1242.42</ele>
        <time>2010-01-01T02:17:11Z</time>
      </trkpt>
      <trkpt lat="45.03412" lon="5.51649">
        <ele>1227.23</ele>
        <time>2010-01-01T02:17:51Z</time>
      </trkpt>
      <trkpt lat="45.03421" lon="5.51778">
        <ele>1209</ele>
        <time>2010-01-01T02:18:28Z</time>
      </trkpt>
      <trkpt lat="45.03418" lon="5.51896">
        <ele>1183.25</ele>
        <time>2010-01-01T02:19:01Z</time>
      </trkpt>
      <trkpt lat="45.03394" lon="5.52018">
        <ele>1159.92</ele>
        <time>2010-01-01T02:19:37Z</time>
      </trkpt>
      <trkpt lat="45.03429" lon="5.52083">
        <ele>1145.63</ele>
        <time>2010-01-01T02:20:00Z</time>
      </trkpt>
      <trkpt lat="45.0337" lon="5.52109">
        <ele>1138.58</ele>
        <time>2010-01-01T02:20:25Z</time>
      </trkpt>
      <trkpt lat="45.03445" lon="5.5217">
        <ele>1124.43</ele>
        <time>2010-01-01T02:20:59Z</time>
      </trkpt>
      <trkpt lat="45.03347" lon="5.52282">
        <ele>1108.41</ele>
        <time>2010-01-01T02:21:50Z</time>
      </trkpt>
      <trkpt lat="45.03259" lon="5.52429">
        <ele>1101.85</ele>
        <time>2010-01-01T02:22:44Z</time>
      </trkpt>
      <trkpt lat="45.03208" lon="5.52575">
        <ele>1102.41</ele>
        <time>2010-01-01T02:23:30Z</time>
      </trkpt>
      <trkpt lat="45.03227" lon="5.52541">
        <ele>1101.78</ele>
        <time>2010-01-01T02:23:42Z</time>
      </trkpt>
    </trkseg>
  </trk>
</gpx>